CES745 NZAA-SAEZ
Flight info
| Callsign | CES745 |
|---|---|
| Flight time | N/A |
| Altitude | 32000 |
| Route | TULMI DCT GS DCT 40S175W DCT 40S170W DCT 41S160W DCT 42S150W DCT 43S140W DCT 44S131W DCT 44S130W DCT 44S120W DCT 44S110W DCT 44S100W DCT 44S090W DCT 44S080W DCT MON UM658 BAR UZ109 ISMIL UT655 ASADA |
| Aircraft | B77W/H-SDE1E2E3FGHIJ2J3J4J5M1RWXY/LB1D1 |
Departure
| Time | 2026-05-05 17:23 |
|---|---|
| Airport | Auckland International Airport (NZAA) |
Arrival
| Time | N/A |
|---|---|
| Airport | Ezeiza International Airport - Ministro Pistarini (SAEZ) |
| Time | Latitude | Longitude | Altitude | Speed | Heading |
|---|---|---|---|---|---|
| 2026-05-05 16:54 | -37.00523 | 174.77797 | 44 ft | 0 kts | 341° |
| 2026-05-05 17:05 | -37.00527 | 174.77799 | 44 ft | 2 kts | 341° |
| 2026-05-05 17:06 | -37.00542 | 174.77805 | 44 ft | 2 kts | 344° |
| 2026-05-05 17:06 | -37.00557 | 174.77809 | 43 ft | 2 kts | 357° |
| 2026-05-05 17:06 | -37.00572 | 174.77808 | 43 ft | 2 kts | 7° |
| 2026-05-05 17:06 | -37.00587 | 174.77805 | 43 ft | 2 kts | 16° |
| 2026-05-05 17:07 | -37.00601 | 174.77799 | 42 ft | 2 kts | 26° |
| 2026-05-05 17:07 | -37.00614 | 174.77789 | 42 ft | 2 kts | 36° |
| 2026-05-05 17:07 | -37.00626 | 174.77777 | 42 ft | 2 kts | 45° |
| 2026-05-05 17:07 | -37.00635 | 174.77762 | 42 ft | 2 kts | 55° |
| 2026-05-05 17:08 | -37.00643 | 174.77747 | 42 ft | 2 kts | 65° |
| 2026-05-05 17:08 | -37.00647 | 174.77736 | 42 ft | 0 kts | 71° |
| 2026-05-05 17:08 | -37.00647 | 174.77733 | 42 ft | 0 kts | 72° |
| 2026-05-05 17:11 | -37.00645 | 174.77743 | 42 ft | 2 kts | 71° |
| 2026-05-05 17:11 | -37.00637 | 174.77773 | 42 ft | 4 kts | 71° |
| 2026-05-05 17:11 | -37.00623 | 174.77824 | 42 ft | 7 kts | 71° |
| 2026-05-05 17:11 | -37.00605 | 174.77896 | 42 ft | 9 kts | 71° |
| 2026-05-05 17:12 | -37.00596 | 174.77983 | 42 ft | 11 kts | 106° |
| 2026-05-05 17:12 | -37.00666 | 174.78036 | 41 ft | 14 kts | 180° |
| 2026-05-05 17:12 | -37.00772 | 174.78001 | 39 ft | 16 kts | 192° |
| 2026-05-05 17:12 | -37.00882 | 174.78046 | 36 ft | 16 kts | 135° |
| 2026-05-05 17:13 | -37.00941 | 174.78180 | 32 ft | 18 kts | 118° |
| 2026-05-05 17:13 | -37.01029 | 174.78284 | 31 ft | 17 kts | 150° |
| 2026-05-05 17:13 | -37.01071 | 174.78406 | 31 ft | 16 kts | 83° |
| 2026-05-05 17:13 | -37.01037 | 174.78534 | 31 ft | 15 kts | 64° |
| 2026-05-05 17:14 | -37.01003 | 174.78653 | 31 ft | 14 kts | 71° |
| 2026-05-05 17:14 | -37.00971 | 174.78769 | 32 ft | 13 kts | 71° |
| 2026-05-05 17:14 | -37.00942 | 174.78877 | 33 ft | 12 kts | 71° |
| 2026-05-05 17:14 | -37.00916 | 174.78969 | 36 ft | 10 kts | 71° |
| 2026-05-05 17:15 | -37.00894 | 174.79050 | 37 ft | 10 kts | 71° |
| 2026-05-05 17:15 | -37.00870 | 174.79138 | 37 ft | 11 kts | 71° |
| 2026-05-05 17:15 | -37.00843 | 174.79236 | 36 ft | 13 kts | 71° |
| 2026-05-05 17:15 | -37.00810 | 174.79355 | 35 ft | 14 kts | 71° |
| 2026-05-05 17:16 | -37.00779 | 174.79472 | 38 ft | 13 kts | 71° |
| 2026-05-05 17:16 | -37.00745 | 174.79590 | 38 ft | 14 kts | 69° |
| 2026-05-05 17:16 | -37.00717 | 174.79688 | 40 ft | 9 kts | 70° |
| 2026-05-05 17:16 | -37.00696 | 174.79762 | 41 ft | 9 kts | 70° |
| 2026-05-05 17:17 | -37.00683 | 174.79808 | 41 ft | 0 kts | 70° |
| 2026-05-05 17:17 | -37.00682 | 174.79811 | 41 ft | 0 kts | 70° |
| 2026-05-05 17:17 | -37.00678 | 174.79826 | 41 ft | 2 kts | 70° |
| 2026-05-05 17:17 | -37.00670 | 174.79854 | 41 ft | 4 kts | 70° |
| 2026-05-05 17:18 | -37.00658 | 174.79895 | 41 ft | 5 kts | 70° |
| 2026-05-05 17:18 | -37.00644 | 174.79945 | 42 ft | 6 kts | 70° |
| 2026-05-05 17:18 | -37.00628 | 174.80003 | 42 ft | 7 kts | 70° |
| 2026-05-05 17:18 | -37.00609 | 174.80069 | 42 ft | 8 kts | 70° |
| 2026-05-05 17:19 | -37.00588 | 174.80142 | 42 ft | 10 kts | 70° |
| 2026-05-05 17:19 | -37.00563 | 174.80234 | 41 ft | 11 kts | 70° |
| 2026-05-05 17:19 | -37.00535 | 174.80330 | 41 ft | 12 kts | 70° |
| 2026-05-05 17:19 | -37.00505 | 174.80440 | 40 ft | 14 kts | 71° |
| 2026-05-05 17:20 | -37.00481 | 174.80548 | 38 ft | 11 kts | 91° |
| 2026-05-05 17:20 | -37.00527 | 174.80612 | 38 ft | 10 kts | 171° |
| 2026-05-05 17:20 | -37.00594 | 174.80597 | 38 ft | 9 kts | 194° |
| 2026-05-05 17:20 | -37.00652 | 174.80572 | 38 ft | 8 kts | 207° |
| 2026-05-05 17:21 | -37.00678 | 174.80525 | 38 ft | 5 kts | 250° |
| 2026-05-05 17:21 | -37.00689 | 174.80484 | 38 ft | 3 kts | 251° |
| 2026-05-05 17:21 | -37.00696 | 174.80460 | 38 ft | 1 kts | 251° |
| 2026-05-05 17:22 | -37.00841 | 174.79913 | 41 ft | 91 kts | 254° |
| 2026-05-05 17:22 | -37.01131 | 174.78894 | 32 ft | 153 kts | 250° |
| 2026-05-05 17:22 | -37.01524 | 174.77435 | 125 ft | 197 kts | 250° |
| 2026-05-05 17:22 | -37.02001 | 174.75738 | 559 ft | 212 kts | 251° |
| 2026-05-05 17:23 | -37.02667 | 174.74089 | 1290 ft | 220 kts | 229° |
| 2026-05-05 17:23 | -37.03949 | 174.72946 | 1532 ft | 239 kts | 196° |
| 2026-05-05 17:23 | -37.05669 | 174.72653 | 1833 ft | 253 kts | 181° |
| 2026-05-05 17:23 | -37.07420 | 174.72559 | 2413 ft | 257 kts | 180° |
| 2026-05-05 17:24 | -37.09242 | 174.72469 | 3047 ft | 262 kts | 180° |
| 2026-05-05 17:24 | -37.11073 | 174.72378 | 3727 ft | 264 kts | 181° |
| 2026-05-05 17:24 | -37.12899 | 174.72288 | 4370 ft | 267 kts | 181° |
| 2026-05-05 17:24 | -37.14778 | 174.72194 | 4899 ft | 272 kts | 181° |
| 2026-05-05 17:25 | -37.16665 | 174.72101 | 4988 ft | 271 kts | 181° |
| 2026-05-05 17:25 | -37.17932 | 174.72037 | 4995 ft | 271 kts | 181° |
| 2026-05-05 17:25 | -37.20445 | 174.72057 | 4975 ft | 269 kts | 166° |
| 2026-05-05 17:25 | -37.22272 | 174.72678 | 5324 ft | 276 kts | 160° |
| 2026-05-05 17:26 | -37.24084 | 174.73416 | 6146 ft | 271 kts | 160° |
| 2026-05-05 17:26 | -37.25878 | 174.74155 | 6755 ft | 274 kts | 160° |
| 2026-05-05 17:26 | -37.27705 | 174.74904 | 7374 ft | 277 kts | 161° |
| 2026-05-05 17:26 | -37.29541 | 174.75655 | 7977 ft | 279 kts | 161° |
| 2026-05-05 17:27 | -37.31405 | 174.76417 | 8551 ft | 282 kts | 161° |
| 2026-05-05 17:27 | -37.33271 | 174.77182 | 9109 ft | 286 kts | 161° |
| 2026-05-05 17:27 | -37.35178 | 174.77962 | 9666 ft | 288 kts | 161° |
| 2026-05-05 17:27 | -37.37089 | 174.78757 | 10224 ft | 291 kts | 158° |
| 2026-05-05 17:28 | -37.38968 | 174.79833 | 10486 ft | 305 kts | 148° |
| 2026-05-05 17:28 | -37.40751 | 174.81384 | 10962 ft | 310 kts | 138° |
| 2026-05-05 17:28 | -37.42303 | 174.83305 | 11246 ft | 323 kts | 128° |
| 2026-05-05 17:28 | -37.43626 | 174.85681 | 11477 ft | 337 kts | 117° |
| 2026-05-05 17:29 | -37.44592 | 174.88415 | 11717 ft | 351 kts | 106° |
| 2026-05-05 17:29 | -37.45121 | 174.91507 | 11950 ft | 364 kts | 92° |
| 2026-05-05 17:29 | -37.45002 | 174.94720 | 12237 ft | 376 kts | 78° |
| 2026-05-05 17:29 | -37.44350 | 174.97925 | 12575 ft | 387 kts | 73° |
| 2026-05-05 17:30 | -37.43796 | 175.01274 | 13179 ft | 392 kts | 80° |
| 2026-05-05 17:30 | -37.43492 | 175.04709 | 13800 ft | 396 kts | 84° |
| 2026-05-05 17:30 | -37.43359 | 175.08189 | 14406 ft | 401 kts | 87° |
| 2026-05-05 17:30 | -37.43344 | 175.11702 | 14973 ft | 406 kts | 89° |
| 2026-05-05 17:31 | -37.43407 | 175.15291 | 15560 ft | 410 kts | 90° |
| 2026-05-05 17:31 | -37.43526 | 175.18921 | 16135 ft | 415 kts | 91° |
| 2026-05-05 17:31 | -37.43677 | 175.22543 | 16708 ft | 419 kts | 92° |
| 2026-05-05 17:31 | -37.43855 | 175.26202 | 17228 ft | 423 kts | 92° |
| 2026-05-05 17:32 | -37.44051 | 175.29923 | 17782 ft | 427 kts | 92° |
| 2026-05-05 17:32 | -37.44259 | 175.33676 | 18323 ft | 431 kts | 92° |
| 2026-05-05 17:32 | -37.44561 | 175.37439 | 18815 ft | 436 kts | 99° |
| 2026-05-05 17:32 | -37.45332 | 175.41141 | 19318 ft | 441 kts | 109° |
| 2026-05-05 17:33 | -37.46596 | 175.44638 | 19796 ft | 446 kts | 119° |
| 2026-05-05 17:33 | -37.48211 | 175.48004 | 20309 ft | 449 kts | 121° |
| 2026-05-05 17:33 | -37.49868 | 175.51358 | 20842 ft | 451 kts | 121° |
| 2026-05-05 17:33 | -37.51508 | 175.54684 | 21310 ft | 454 kts | 121° |
| 2026-05-05 17:34 | -37.53174 | 175.58073 | 21766 ft | 458 kts | 121° |
| 2026-05-05 17:34 | -37.54866 | 175.61525 | 22220 ft | 461 kts | 121° |
| 2026-05-05 17:34 | -37.56553 | 175.64977 | 22707 ft | 464 kts | 121° |
| 2026-05-05 17:34 | -37.58239 | 175.68430 | 23165 ft | 466 kts | 121° |
| 2026-05-05 17:35 | -37.59968 | 175.71977 | 23601 ft | 469 kts | 121° |
| 2026-05-05 17:35 | -37.61666 | 175.75467 | 24027 ft | 472 kts | 121° |
| 2026-05-05 17:35 | -37.63386 | 175.79007 | 24413 ft | 475 kts | 121° |
| 2026-05-05 17:35 | -37.65119 | 175.82579 | 24812 ft | 477 kts | 121° |
| 2026-05-05 17:36 | -37.66861 | 175.86173 | 25191 ft | 480 kts | 121° |
| 2026-05-05 17:36 | -37.68603 | 175.89772 | 25572 ft | 482 kts | 121° |
| 2026-05-05 17:36 | -37.70370 | 175.93425 | 25949 ft | 485 kts | 121° |
| 2026-05-05 17:36 | -37.72138 | 175.97086 | 26338 ft | 487 kts | 121° |
| 2026-05-05 17:37 | -37.73902 | 176.00743 | 26690 ft | 490 kts | 121° |
| 2026-05-05 17:37 | -37.75093 | 176.03214 | 26910 ft | 492 kts | 122° |
| 2026-05-05 17:37 | -37.77457 | 176.08124 | 27384 ft | 495 kts | 122° |
| 2026-05-05 17:37 | -37.79253 | 176.11859 | 27729 ft | 498 kts | 122° |
| 2026-05-05 17:38 | -37.81045 | 176.15593 | 28074 ft | 500 kts | 122° |
| 2026-05-05 17:38 | -37.82854 | 176.19365 | 28409 ft | 503 kts | 122° |
| 2026-05-05 17:38 | -37.84681 | 176.23177 | 28756 ft | 505 kts | 122° |
| 2026-05-05 17:38 | -37.86499 | 176.26975 | 29084 ft | 508 kts | 122° |
| 2026-05-05 17:39 | -37.88329 | 176.30804 | 29436 ft | 510 kts | 122° |
| 2026-05-05 17:39 | -37.90154 | 176.34628 | 29776 ft | 512 kts | 122° |
| 2026-05-05 17:39 | -37.92013 | 176.38527 | 30253 ft | 511 kts | 122° |
| 2026-05-05 17:39 | -37.93831 | 176.42345 | 30770 ft | 509 kts | 122° |
| 2026-05-05 17:40 | -37.95640 | 176.46147 | 31300 ft | 506 kts | 122° |
| 2026-05-05 17:40 | -37.97462 | 176.49983 | 31770 ft | 504 kts | 122° |
| 2026-05-05 17:40 | -37.99264 | 176.53780 | 32199 ft | 503 kts | 122° |
| 2026-05-05 17:40 | -38.01077 | 176.57605 | 32396 ft | 506 kts | 122° |
| 2026-05-05 17:41 | -38.02892 | 176.61438 | 32416 ft | 505 kts | 122° |
| 2026-05-05 17:41 | -38.06498 | 176.69067 | 32410 ft | 502 kts | 122° |
| 2026-05-05 17:42 | -38.10113 | 176.76735 | 32402 ft | 504 kts | 122° |
| 2026-05-05 17:42 | -38.13703 | 176.84367 | 32413 ft | 504 kts | 122° |
| 2026-05-05 17:43 | -38.17304 | 176.92038 | 32407 ft | 504 kts | 121° |
| 2026-05-05 17:43 | -38.20893 | 176.99704 | 32402 ft | 505 kts | 121° |
| 2026-05-05 17:44 | -38.24475 | 177.07375 | 32406 ft | 504 kts | 121° |
| 2026-05-05 17:44 | -38.28058 | 177.15063 | 32408 ft | 504 kts | 121° |
| 2026-05-05 17:45 | -38.31636 | 177.22761 | 32415 ft | 503 kts | 121° |
| 2026-05-05 17:45 | -38.35186 | 177.30417 | 32409 ft | 504 kts | 121° |
| 2026-05-05 17:46 | -38.38755 | 177.38132 | 32415 ft | 503 kts | 121° |
| 2026-05-05 17:46 | -38.42296 | 177.45804 | 32413 ft | 504 kts | 121° |
| 2026-05-05 17:47 | -38.45869 | 177.53563 | 32413 ft | 505 kts | 121° |
| 2026-05-05 17:47 | -38.49399 | 177.61249 | 32417 ft | 505 kts | 121° |
| 2026-05-05 17:48 | -38.52952 | 177.69003 | 32416 ft | 505 kts | 120° |
| 2026-05-05 17:48 | -38.56508 | 177.76784 | 32414 ft | 505 kts | 120° |
| 2026-05-05 17:49 | -38.60036 | 177.84520 | 32415 ft | 503 kts | 120° |
| 2026-05-05 17:49 | -38.63574 | 177.92299 | 32418 ft | 504 kts | 120° |
| 2026-05-05 17:50 | -38.66545 | 178.00404 | 32411 ft | 503 kts | 107° |
| 2026-05-05 17:50 | -38.68545 | 178.09036 | 32407 ft | 504 kts | 106° |
| 2026-05-05 17:51 | -38.70486 | 178.17654 | 32413 ft | 504 kts | 105° |
| 2026-05-05 17:51 | -38.72423 | 178.26320 | 32408 ft | 504 kts | 105° |
| 2026-05-05 17:52 | -38.74356 | 178.35027 | 32405 ft | 505 kts | 105° |
| 2026-05-05 17:52 | -38.76278 | 178.43723 | 32401 ft | 505 kts | 105° |
| 2026-05-05 17:53 | -38.78219 | 178.52545 | 32410 ft | 504 kts | 105° |
| 2026-05-05 17:53 | -38.80125 | 178.61247 | 32406 ft | 504 kts | 105° |
| 2026-05-05 17:54 | -38.82031 | 178.69980 | 32404 ft | 504 kts | 104° |
| 2026-05-05 17:54 | -38.83905 | 178.78606 | 32405 ft | 505 kts | 104° |
| 2026-05-05 17:55 | -38.85798 | 178.87354 | 32405 ft | 505 kts | 104° |
| 2026-05-05 17:55 | -38.87665 | 178.96013 | 32408 ft | 506 kts | 104° |
| 2026-05-05 17:56 | -38.89547 | 179.04776 | 32409 ft | 506 kts | 104° |
| 2026-05-05 17:56 | -38.91451 | 179.13684 | 32412 ft | 505 kts | 104° |
| 2026-05-05 17:57 | -38.93349 | 179.22597 | 32416 ft | 505 kts | 104° |
| 2026-05-05 17:57 | -38.95216 | 179.31400 | 32416 ft | 504 kts | 104° |
| 2026-05-05 17:58 | -38.97073 | 179.40192 | 32418 ft | 505 kts | 104° |
| 2026-05-05 17:58 | -38.98976 | 179.49240 | 32421 ft | 505 kts | 104° |
| 2026-05-05 17:59 | -39.00808 | 179.57980 | 32422 ft | 505 kts | 104° |
| 2026-05-05 17:59 | -39.02683 | 179.66968 | 32423 ft | 506 kts | 104° |
| 2026-05-05 18:00 | -39.04504 | 179.75732 | 32423 ft | 505 kts | 104° |
| 2026-05-05 18:00 | -39.06307 | 179.84450 | 32427 ft | 504 kts | 104° |
| 2026-05-05 18:01 | -39.08116 | 179.93230 | 32426 ft | 505 kts | 103° |
| 2026-05-05 18:01 | -39.09914 | -179.98009 | 32429 ft | 504 kts | 103° |
| 2026-05-05 18:02 | -39.11689 | -179.89319 | 32437 ft | 504 kts | 103° |
| 2026-05-05 18:02 | -39.13479 | -179.80524 | 32438 ft | 505 kts | 103° |
| 2026-05-05 18:03 | -39.15250 | -179.71783 | 32434 ft | 505 kts | 104° |
| 2026-05-05 18:03 | -39.17012 | -179.63051 | 32443 ft | 506 kts | 104° |
| 2026-05-05 18:04 | -39.18785 | -179.54228 | 32455 ft | 506 kts | 104° |
| 2026-05-05 18:04 | -39.20540 | -179.45458 | 32451 ft | 506 kts | 103° |
| 2026-05-05 18:05 | -39.22301 | -179.36620 | 32454 ft | 506 kts | 103° |
| 2026-05-05 18:05 | -39.24048 | -179.27817 | 32454 ft | 506 kts | 103° |
| 2026-05-05 18:06 | -39.25801 | -179.18938 | 32458 ft | 506 kts | 103° |
| 2026-05-05 18:06 | -39.27599 | -179.09798 | 32461 ft | 507 kts | 103° |
| 2026-05-05 18:07 | -39.29353 | -179.00838 | 32460 ft | 506 kts | 103° |
| 2026-05-05 18:07 | -39.31113 | -178.91806 | 32453 ft | 505 kts | 103° |
| 2026-05-05 18:08 | -39.32850 | -178.82857 | 32450 ft | 506 kts | 103° |
| 2026-05-05 18:08 | -39.34583 | -178.73885 | 32451 ft | 505 kts | 103° |
| 2026-05-05 18:09 | -39.36309 | -178.64911 | 32455 ft | 506 kts | 103° |
| 2026-05-05 18:09 | -39.38053 | -178.55801 | 32458 ft | 507 kts | 103° |
| 2026-05-05 18:10 | -39.39761 | -178.46840 | 32455 ft | 506 kts | 102° |
| 2026-05-05 18:10 | -39.41450 | -178.37938 | 32458 ft | 506 kts | 103° |
| 2026-05-05 18:11 | -39.43114 | -178.29129 | 32460 ft | 506 kts | 103° |
| 2026-05-05 18:11 | -39.44780 | -178.20265 | 32461 ft | 506 kts | 103° |
| 2026-05-05 18:12 | -39.46458 | -178.11302 | 32463 ft | 507 kts | 103° |
| 2026-05-05 18:12 | -39.48188 | -178.02014 | 32459 ft | 507 kts | 103° |
| 2026-05-05 18:13 | -39.49889 | -177.92842 | 32457 ft | 507 kts | 103° |
| 2026-05-05 18:13 | -39.51600 | -177.83569 | 32463 ft | 507 kts | 103° |
| 2026-05-05 18:14 | -39.53268 | -177.74487 | 32462 ft | 507 kts | 103° |
| 2026-05-05 18:14 | -39.54948 | -177.65303 | 32467 ft | 506 kts | 103° |
| 2026-05-05 18:15 | -39.56603 | -177.56203 | 32477 ft | 507 kts | 103° |
| 2026-05-05 18:15 | -39.58300 | -177.46829 | 32482 ft | 506 kts | 103° |
| 2026-05-05 18:16 | -39.59959 | -177.37617 | 32487 ft | 507 kts | 103° |
| 2026-05-05 18:16 | -39.61572 | -177.28626 | 32487 ft | 507 kts | 102° |
| 2026-05-05 18:17 | -39.63166 | -177.19691 | 32484 ft | 507 kts | 102° |
| 2026-05-05 18:17 | -39.64748 | -177.10786 | 32487 ft | 508 kts | 102° |
| 2026-05-05 18:18 | -39.66338 | -177.01788 | 32489 ft | 508 kts | 102° |
| 2026-05-05 18:18 | -39.67925 | -176.92766 | 32489 ft | 508 kts | 102° |
| 2026-05-05 18:19 | -39.69548 | -176.83490 | 32491 ft | 508 kts | 102° |
| 2026-05-05 18:19 | -39.71165 | -176.74206 | 32495 ft | 507 kts | 102° |
| 2026-05-05 18:20 | -39.72750 | -176.65062 | 32497 ft | 508 kts | 102° |
| 2026-05-05 18:20 | -39.74342 | -176.55827 | 32500 ft | 508 kts | 102° |
| 2026-05-05 18:21 | -39.75940 | -176.46509 | 32498 ft | 509 kts | 102° |
| 2026-05-05 18:21 | -39.77514 | -176.37286 | 32494 ft | 509 kts | 103° |
| 2026-05-05 18:22 | -39.79053 | -176.28223 | 32493 ft | 509 kts | 102° |
| 2026-05-05 18:22 | -39.80569 | -176.19252 | 32492 ft | 508 kts | 102° |
| 2026-05-05 18:23 | -39.82070 | -176.10321 | 32489 ft | 508 kts | 102° |
| 2026-05-05 18:23 | -39.83574 | -176.01332 | 32489 ft | 508 kts | 102° |
| 2026-05-05 18:24 | -39.85095 | -175.92191 | 32494 ft | 508 kts | 102° |
| 2026-05-05 18:24 | -39.86624 | -175.82954 | 32495 ft | 509 kts | 102° |
| 2026-05-05 18:25 | -39.88164 | -175.73605 | 32505 ft | 509 kts | 102° |
| 2026-05-05 18:25 | -39.89672 | -175.64398 | 32510 ft | 508 kts | 102° |
| 2026-05-05 18:26 | -39.91188 | -175.55100 | 32521 ft | 509 kts | 102° |
| 2026-05-05 18:26 | -39.92674 | -175.45929 | 32523 ft | 508 kts | 102° |
| 2026-05-05 18:27 | -39.94167 | -175.36668 | 32523 ft | 508 kts | 102° |
| 2026-05-05 18:27 | -39.95610 | -175.27666 | 32522 ft | 507 kts | 102° |
| 2026-05-05 18:28 | -39.97759 | -175.14182 | 32511 ft | 508 kts | 102° |
| 2026-05-05 18:28 | -39.99188 | -175.05148 | 32509 ft | 508 kts | 102° |
| 2026-05-05 18:29 | -39.99970 | -174.95909 | 32514 ft | 509 kts | 92° |
| 2026-05-05 18:29 | -40.00216 | -174.86722 | 32513 ft | 508 kts | 92° |
| 2026-05-05 18:30 | -40.00427 | -174.77527 | 32514 ft | 509 kts | 92° |
| 2026-05-05 18:30 | -40.00619 | -174.68333 | 32512 ft | 507 kts | 92° |
| 2026-05-05 18:31 | -40.00797 | -174.59074 | 32513 ft | 507 kts | 92° |
| 2026-05-05 18:31 | -40.00966 | -174.49748 | 32509 ft | 506 kts | 92° |
| 2026-05-05 18:32 | -40.01125 | -174.40410 | 32512 ft | 507 kts | 92° |
| 2026-05-05 18:32 | -40.01275 | -174.31125 | 32508 ft | 507 kts | 91° |
| 2026-05-05 18:33 | -40.01415 | -174.21944 | 32507 ft | 507 kts | 91° |
| 2026-05-05 18:33 | -40.01548 | -174.12744 | 32507 ft | 506 kts | 91° |
| 2026-05-05 18:34 | -40.01673 | -174.03572 | 32508 ft | 507 kts | 91° |
| 2026-05-05 18:34 | -40.01791 | -173.94295 | 32517 ft | 506 kts | 91° |
| 2026-05-05 18:35 | -40.01905 | -173.84882 | 32529 ft | 505 kts | 91° |
| 2026-05-05 18:35 | -40.02010 | -173.75502 | 32532 ft | 505 kts | 91° |
| 2026-05-05 18:36 | -40.02107 | -173.66128 | 32530 ft | 503 kts | 91° |
| 2026-05-05 18:36 | -40.02197 | -173.56712 | 32531 ft | 503 kts | 91° |
| 2026-05-05 18:37 | -40.02279 | -173.47342 | 32530 ft | 504 kts | 91° |
| 2026-05-05 18:37 | -40.02355 | -173.37878 | 32531 ft | 502 kts | 91° |
| 2026-05-05 18:38 | -40.02420 | -173.28700 | 32527 ft | 502 kts | 90° |
| 2026-05-05 18:38 | -40.02478 | -173.19594 | 32528 ft | 502 kts | 90° |
| 2026-05-05 18:39 | -40.02529 | -173.10503 | 32529 ft | 502 kts | 90° |
| 2026-05-05 18:39 | -40.02573 | -173.01434 | 32528 ft | 500 kts | 90° |
| 2026-05-05 18:40 | -40.02610 | -172.92281 | 32527 ft | 501 kts | 90° |
| 2026-05-05 18:40 | -40.02640 | -172.82907 | 32528 ft | 501 kts | 90° |
| 2026-05-05 18:41 | -40.02663 | -172.73560 | 32528 ft | 501 kts | 90° |
| 2026-05-05 18:41 | -40.02678 | -172.64192 | 32517 ft | 501 kts | 90° |
| 2026-05-05 18:42 | -40.02685 | -172.54878 | 32507 ft | 501 kts | 90° |
| 2026-05-05 18:42 | -40.02685 | -172.45493 | 32508 ft | 501 kts | 90° |
| 2026-05-05 18:43 | -40.02678 | -172.36099 | 32510 ft | 501 kts | 90° |
| 2026-05-05 18:43 | -40.02664 | -172.26945 | 32514 ft | 502 kts | 90° |
| 2026-05-05 18:44 | -40.02642 | -172.17877 | 32512 ft | 500 kts | 90° |
| 2026-05-05 18:44 | -40.02613 | -172.08778 | 32521 ft | 501 kts | 90° |
| 2026-05-05 18:45 | -40.02578 | -171.99745 | 32530 ft | 500 kts | 90° |
| 2026-05-05 18:45 | -40.02534 | -171.90466 | 32527 ft | 500 kts | 90° |
| 2026-05-05 18:46 | -40.02483 | -171.81096 | 32525 ft | 500 kts | 90° |
| 2026-05-05 18:46 | -40.02423 | -171.71687 | 32533 ft | 502 kts | 90° |
| 2026-05-05 18:47 | -40.02357 | -171.62419 | 32526 ft | 501 kts | 90° |
| 2026-05-05 18:47 | -40.02282 | -171.52965 | 32529 ft | 502 kts | 90° |
| 2026-05-05 18:48 | -40.02200 | -171.43561 | 32528 ft | 501 kts | 90° |
| 2026-05-05 18:48 | -40.02111 | -171.34235 | 32534 ft | 501 kts | 90° |
| 2026-05-05 18:49 | -40.02016 | -171.25156 | 32526 ft | 500 kts | 90° |
| 2026-05-05 18:49 | -40.01916 | -171.16075 | 32517 ft | 501 kts | 90° |
| 2026-05-05 18:50 | -40.01808 | -171.07021 | 32512 ft | 500 kts | 90° |
| 2026-05-05 18:50 | -40.01693 | -170.97916 | 32510 ft | 501 kts | 90° |
| 2026-05-05 18:51 | -40.01567 | -170.88606 | 32508 ft | 502 kts | 90° |
| 2026-05-05 18:51 | -40.01432 | -170.79132 | 32505 ft | 501 kts | 90° |
| 2026-05-05 18:52 | -40.01289 | -170.69707 | 32513 ft | 501 kts | 90° |
| 2026-05-05 18:52 | -40.01141 | -170.60378 | 32507 ft | 500 kts | 90° |
| 2026-05-05 18:53 | -40.00985 | -170.51028 | 32507 ft | 499 kts | 90° |
| 2026-05-05 18:53 | -40.00821 | -170.41669 | 32509 ft | 499 kts | 90° |
| 2026-05-05 18:54 | -40.00653 | -170.32504 | 32508 ft | 499 kts | 89° |
| 2026-05-05 18:54 | -40.00480 | -170.23418 | 32505 ft | 499 kts | 89° |
| 2026-05-05 18:55 | -40.00301 | -170.14436 | 32510 ft | 499 kts | 89° |
| 2026-05-05 18:55 | -40.00115 | -170.05415 | 32511 ft | 500 kts | 89° |
| 2026-05-05 18:56 | -40.00409 | -169.96341 | 32520 ft | 498 kts | 101° |
| 2026-05-05 18:56 | -40.01719 | -169.87491 | 32525 ft | 498 kts | 102° |
| 2026-05-05 18:57 | -40.03037 | -169.78587 | 32525 ft | 497 kts | 101° |
| 2026-05-05 18:57 | -40.04355 | -169.69513 | 32524 ft | 495 kts | 101° |
| 2026-05-05 18:58 | -40.05653 | -169.60446 | 32523 ft | 497 kts | 101° |
| 2026-05-05 18:58 | -40.06956 | -169.51250 | 32524 ft | 496 kts | 101° |
| 2026-05-05 18:59 | -40.08253 | -169.42027 | 32516 ft | 495 kts | 101° |
| 2026-05-05 18:59 | -40.09510 | -169.33020 | 32514 ft | 495 kts | 100° |
| 2026-05-05 19:00 | -40.10735 | -169.24188 | 32513 ft | 493 kts | 99° |
| 2026-05-05 19:00 | -40.11945 | -169.15402 | 32516 ft | 493 kts | 99° |
| 2026-05-05 19:01 | -40.13153 | -169.06584 | 32512 ft | 492 kts | 99° |
| 2026-05-05 19:01 | -40.14347 | -168.97813 | 32513 ft | 492 kts | 99° |
| 2026-05-05 19:02 | -40.15562 | -168.88835 | 32510 ft | 492 kts | 99° |
| 2026-05-05 19:02 | -40.16781 | -168.79765 | 32505 ft | 491 kts | 99° |
| 2026-05-05 19:03 | -40.18001 | -168.70639 | 32506 ft | 492 kts | 99° |
| 2026-05-05 19:03 | -40.19186 | -168.61720 | 32513 ft | 491 kts | 99° |
| 2026-05-05 19:04 | -40.20395 | -168.52560 | 32494 ft | 491 kts | 99° |
| 2026-05-05 19:04 | -40.21577 | -168.43550 | 32487 ft | 489 kts | 99° |
| 2026-05-05 19:05 | -40.22747 | -168.34570 | 32484 ft | 489 kts | 98° |
| 2026-05-05 19:05 | -40.23875 | -168.25864 | 32492 ft | 488 kts | 98° |
| 2026-05-05 19:06 | -40.25003 | -168.17105 | 32488 ft | 488 kts | 98° |
| 2026-05-05 19:06 | -40.26120 | -168.08372 | 32486 ft | 487 kts | 98° |
| 2026-05-05 19:07 | -40.27230 | -167.99648 | 32488 ft | 486 kts | 97° |
| 2026-05-05 19:07 | -40.28359 | -167.90718 | 32488 ft | 486 kts | 97° |
| 2026-05-05 19:08 | -40.29493 | -167.81677 | 32485 ft | 486 kts | 97° |
| 2026-05-05 19:08 | -40.30605 | -167.72766 | 32483 ft | 486 kts | 97° |
| 2026-05-05 19:09 | -40.31712 | -167.63832 | 32480 ft | 485 kts | 97° |
| 2026-05-05 19:09 | -40.32807 | -167.54936 | 32479 ft | 485 kts | 97° |
| 2026-05-05 19:10 | -40.33909 | -167.45926 | 32476 ft | 486 kts | 97° |
| 2026-05-05 19:10 | -40.34988 | -167.37045 | 32476 ft | 486 kts | 97° |
| 2026-05-05 19:11 | -40.36052 | -167.28230 | 32475 ft | 485 kts | 96° |
| 2026-05-05 19:11 | -40.37099 | -167.19502 | 32472 ft | 485 kts | 96° |
| 2026-05-05 19:12 | -40.38136 | -167.10792 | 32469 ft | 485 kts | 96° |
| 2026-05-05 19:12 | -40.39177 | -167.01993 | 32470 ft | 485 kts | 96° |
| 2026-05-05 19:13 | -40.40226 | -166.93069 | 32475 ft | 485 kts | 96° |
| 2026-05-05 19:13 | -40.41266 | -166.84166 | 32474 ft | 484 kts | 96° |
| 2026-05-05 19:14 | -40.42292 | -166.75311 | 32472 ft | 484 kts | 97° |
| 2026-05-05 19:14 | -40.43326 | -166.66328 | 32472 ft | 485 kts | 96° |
| 2026-05-05 19:15 | -40.44344 | -166.57416 | 32470 ft | 485 kts | 97° |
| 2026-05-05 19:15 | -40.45362 | -166.48456 | 32471 ft | 485 kts | 97° |
| 2026-05-05 19:16 | -40.46376 | -166.39449 | 32468 ft | 485 kts | 97° |
| 2026-05-05 19:16 | -40.47371 | -166.30562 | 32469 ft | 484 kts | 96° |
| 2026-05-05 19:17 | -40.48341 | -166.21834 | 32471 ft | 484 kts | 96° |
| 2026-05-05 19:17 | -40.49302 | -166.13117 | 32470 ft | 484 kts | 96° |
| 2026-05-05 19:18 | -40.50264 | -166.04335 | 32467 ft | 484 kts | 96° |
| 2026-05-05 19:18 | -40.51225 | -165.95499 | 32466 ft | 484 kts | 96° |
| 2026-05-05 19:19 | -40.52198 | -165.86488 | 32462 ft | 484 kts | 96° |
| 2026-05-05 19:19 | -40.53149 | -165.77609 | 32457 ft | 484 kts | 96° |
| 2026-05-05 19:20 | -40.54107 | -165.68605 | 32453 ft | 484 kts | 96° |
| 2026-05-05 19:20 | -40.55046 | -165.59705 | 32451 ft | 485 kts | 96° |
| 2026-05-05 19:21 | -40.55978 | -165.50800 | 32449 ft | 486 kts | 96° |
| 2026-05-05 19:21 | -40.56912 | -165.41821 | 32446 ft | 485 kts | 96° |
| 2026-05-05 19:22 | -40.57838 | -165.32837 | 32444 ft | 484 kts | 96° |
| 2026-05-05 19:22 | -40.58734 | -165.24087 | 32447 ft | 486 kts | 96° |
| 2026-05-05 19:23 | -40.59627 | -165.15285 | 32448 ft | 487 kts | 96° |
| 2026-05-05 19:23 | -40.60514 | -165.06491 | 32447 ft | 486 kts | 96° |
| 2026-05-05 19:24 | -40.61396 | -164.97673 | 32446 ft | 487 kts | 96° |
| 2026-05-05 19:24 | -40.62289 | -164.88670 | 32444 ft | 487 kts | 96° |
| 2026-05-05 19:25 | -40.63175 | -164.79662 | 32438 ft | 486 kts | 96° |
| 2026-05-05 19:25 | -40.64053 | -164.70666 | 32436 ft | 487 kts | 96° |
| 2026-05-05 19:26 | -40.64919 | -164.61713 | 32432 ft | 486 kts | 96° |
| 2026-05-05 19:26 | -40.65787 | -164.52676 | 32431 ft | 488 kts | 96° |
| 2026-05-05 19:27 | -40.66643 | -164.43683 | 32427 ft | 490 kts | 96° |
| 2026-05-05 19:27 | -40.67490 | -164.34703 | 32424 ft | 488 kts | 95° |
| 2026-05-05 19:28 | -40.68323 | -164.25809 | 32423 ft | 487 kts | 95° |
| 2026-05-05 19:28 | -40.69144 | -164.16962 | 32423 ft | 487 kts | 96° |
| 2026-05-05 19:29 | -40.69956 | -164.08138 | 32428 ft | 487 kts | 96° |
| 2026-05-05 19:29 | -40.70770 | -163.99213 | 32426 ft | 488 kts | 96° |
| 2026-05-05 19:30 | -40.71579 | -163.90269 | 32425 ft | 488 kts | 96° |
| 2026-05-05 19:30 | -40.72397 | -163.81137 | 32418 ft | 490 kts | 96° |
| 2026-05-05 19:31 | -40.73205 | -163.72047 | 32415 ft | 491 kts | 96° |
| 2026-05-05 19:31 | -40.74003 | -163.62973 | 32413 ft | 490 kts | 96° |
| 2026-05-05 19:32 | -40.74794 | -163.53914 | 32412 ft | 490 kts | 96° |
| 2026-05-05 19:32 | -40.75579 | -163.44827 | 32405 ft | 491 kts | 96° |
| 2026-05-05 19:33 | -40.76359 | -163.35716 | 32403 ft | 491 kts | 96° |
| 2026-05-05 19:33 | -40.77117 | -163.26765 | 32397 ft | 492 kts | 95° |
| 2026-05-05 19:34 | -40.77866 | -163.17859 | 32399 ft | 492 kts | 96° |
| 2026-05-05 19:35 | -40.78985 | -163.04379 | 32391 ft | 493 kts | 96° |
| 2026-05-05 19:35 | -40.79739 | -162.95186 | 32389 ft | 493 kts | 96° |
| 2026-05-05 19:36 | -40.80483 | -162.86029 | 32386 ft | 496 kts | 96° |
| 2026-05-05 19:36 | -40.81226 | -162.76790 | 32392 ft | 494 kts | 96° |
| 2026-05-05 19:37 | -40.81954 | -162.67639 | 32391 ft | 495 kts | 96° |
| 2026-05-05 19:37 | -40.82684 | -162.58371 | 32393 ft | 495 kts | 96° |
| 2026-05-05 19:38 | -40.83408 | -162.49091 | 32384 ft | 497 kts | 96° |
| 2026-05-05 19:38 | -40.84120 | -162.39867 | 32381 ft | 496 kts | 96° |
| 2026-05-05 19:39 | -40.84813 | -162.30778 | 32375 ft | 495 kts | 96° |
| 2026-05-05 19:39 | -40.85496 | -162.21736 | 32377 ft | 496 kts | 96° |
| 2026-05-05 19:40 | -40.86174 | -162.12669 | 32369 ft | 496 kts | 96° |
| 2026-05-05 19:40 | -40.86840 | -162.03667 | 32368 ft | 496 kts | 96° |
| 2026-05-05 19:41 | -40.87514 | -161.94449 | 32364 ft | 497 kts | 96° |
| 2026-05-05 19:41 | -40.88184 | -161.85194 | 32363 ft | 497 kts | 96° |
| 2026-05-05 19:42 | -40.88844 | -161.75963 | 32367 ft | 497 kts | 96° |
| 2026-05-05 19:42 | -40.89500 | -161.66681 | 32364 ft | 497 kts | 96° |
| 2026-05-05 19:43 | -40.90145 | -161.57455 | 32367 ft | 497 kts | 96° |
| 2026-05-05 19:43 | -40.90796 | -161.48032 | 32367 ft | 499 kts | 96° |
| 2026-05-05 19:44 | -40.91422 | -161.38853 | 32362 ft | 499 kts | 97° |
| 2026-05-05 19:44 | -40.92046 | -161.29616 | 32363 ft | 499 kts | 96° |
| 2026-05-05 19:45 | -40.92654 | -161.20477 | 32361 ft | 501 kts | 96° |
| 2026-05-05 19:45 | -40.93258 | -161.11310 | 32352 ft | 501 kts | 96° |
| 2026-05-05 19:46 | -40.93861 | -161.02046 | 32343 ft | 501 kts | 96° |
| 2026-05-05 19:46 | -40.94461 | -160.92691 | 32340 ft | 501 kts | 96° |
| 2026-05-05 19:47 | -40.95050 | -160.83403 | 32342 ft | 500 kts | 96° |
| 2026-05-05 19:47 | -40.95629 | -160.74155 | 32338 ft | 501 kts | 97° |
| 2026-05-05 19:48 | -40.96211 | -160.64735 | 32338 ft | 502 kts | 97° |
| 2026-05-05 19:48 | -40.96786 | -160.55296 | 32334 ft | 502 kts | 97° |
| 2026-05-05 19:49 | -40.97348 | -160.45964 | 32333 ft | 502 kts | 97° |
| 2026-05-05 19:49 | -40.97896 | -160.36714 | 32334 ft | 504 kts | 97° |
| 2026-05-05 19:50 | -40.98440 | -160.27417 | 32325 ft | 505 kts | 96° |
| 2026-05-05 19:50 | -40.98972 | -160.18187 | 32326 ft | 504 kts | 96° |
| 2026-05-05 19:51 | -40.99496 | -160.08980 | 32323 ft | 504 kts | 97° |
| 2026-05-05 19:51 | -41.00016 | -159.99710 | 32317 ft | 504 kts | 97° |
| 2026-05-05 19:52 | -41.01144 | -159.90633 | 32316 ft | 501 kts | 105° |
| 2026-05-05 19:52 | -41.02556 | -159.81509 | 32315 ft | 502 kts | 104° |
| 2026-05-05 19:53 | -41.03930 | -159.72293 | 32316 ft | 502 kts | 104° |
| 2026-05-05 19:53 | -41.05295 | -159.62915 | 32322 ft | 504 kts | 104° |
| 2026-05-05 19:54 | -41.06637 | -159.53542 | 32318 ft | 504 kts | 104° |
| 2026-05-05 19:54 | -41.07948 | -159.44275 | 32317 ft | 504 kts | 104° |
| 2026-05-05 19:55 | -41.09252 | -159.34985 | 32309 ft | 505 kts | 103° |
| 2026-05-05 19:55 | -41.10531 | -159.25789 | 32306 ft | 505 kts | 104° |
| 2026-05-05 19:56 | -41.11797 | -159.16635 | 32306 ft | 507 kts | 104° |
| 2026-05-05 19:56 | -41.13053 | -159.07487 | 32306 ft | 507 kts | 104° |
| 2026-05-05 19:57 | -41.14313 | -158.98254 | 32302 ft | 506 kts | 104° |
| 2026-05-05 19:57 | -41.15580 | -158.88902 | 32303 ft | 506 kts | 104° |
| 2026-05-05 19:58 | -41.16857 | -158.79419 | 32293 ft | 506 kts | 104° |
| 2026-05-05 19:58 | -41.18111 | -158.70050 | 32289 ft | 507 kts | 104° |
| 2026-05-05 19:59 | -41.19362 | -158.60645 | 32288 ft | 507 kts | 104° |
| 2026-05-05 19:59 | -41.20626 | -158.51079 | 32283 ft | 508 kts | 104° |
| 2026-05-05 20:00 | -41.21859 | -158.41678 | 32281 ft | 507 kts | 105° |
| 2026-05-05 20:00 | -41.23090 | -158.32237 | 32271 ft | 509 kts | 104° |
| 2026-05-05 20:01 | -41.24289 | -158.22977 | 32267 ft | 508 kts | 104° |
| 2026-05-05 20:01 | -41.25479 | -158.13727 | 32261 ft | 509 kts | 104° |
| 2026-05-05 20:02 | -41.26665 | -158.04446 | 32261 ft | 510 kts | 104° |
| 2026-05-05 20:02 | -41.27865 | -157.94989 | 32258 ft | 509 kts | 104° |
| 2026-05-05 20:03 | -41.29065 | -157.85469 | 32256 ft | 510 kts | 104° |
| 2026-05-05 20:03 | -41.30260 | -157.75925 | 32250 ft | 511 kts | 104° |
| 2026-05-05 20:04 | -41.31442 | -157.66419 | 32248 ft | 510 kts | 104° |
| 2026-05-05 20:04 | -41.32637 | -157.56735 | 32248 ft | 511 kts | 105° |
| 2026-05-05 20:05 | -41.33808 | -157.47182 | 32248 ft | 511 kts | 104° |
| 2026-05-05 20:05 | -41.34963 | -157.37697 | 32247 ft | 511 kts | 105° |
| 2026-05-05 20:06 | -41.36097 | -157.28314 | 32235 ft | 511 kts | 104° |
| 2026-05-05 20:06 | -41.37214 | -157.19006 | 32229 ft | 512 kts | 104° |
| 2026-05-05 20:07 | -41.38332 | -157.09618 | 32229 ft | 514 kts | 104° |
| 2026-05-05 20:07 | -41.39439 | -157.00262 | 32218 ft | 515 kts | 104° |
| 2026-05-05 20:08 | -41.40570 | -156.90625 | 32220 ft | 514 kts | 104° |
| 2026-05-05 20:08 | -41.41698 | -156.80953 | 32217 ft | 514 kts | 104° |
| 2026-05-05 20:09 | -41.42810 | -156.71343 | 32214 ft | 515 kts | 104° |
| 2026-05-05 20:09 | -41.43925 | -156.61626 | 32216 ft | 515 kts | 104° |
| 2026-05-05 20:10 | -41.45034 | -156.51888 | 32213 ft | 514 kts | 104° |
| 2026-05-05 20:10 | -41.46130 | -156.42200 | 32211 ft | 516 kts | 104° |
| 2026-05-05 20:11 | -41.47208 | -156.32594 | 32200 ft | 517 kts | 104° |
| 2026-05-05 20:11 | -41.48254 | -156.23187 | 32194 ft | 517 kts | 104° |
| 2026-05-05 20:12 | -41.49303 | -156.13698 | 32196 ft | 518 kts | 104° |
| 2026-05-05 20:12 | -41.50344 | -156.04192 | 32194 ft | 518 kts | 104° |
| 2026-05-05 20:13 | -41.51400 | -155.94476 | 32190 ft | 517 kts | 104° |
| 2026-05-05 20:13 | -41.52459 | -155.84666 | 32186 ft | 518 kts | 104° |
| 2026-05-05 20:14 | -41.53535 | -155.74602 | 32182 ft | 517 kts | 104° |
| 2026-05-05 20:14 | -41.54563 | -155.64912 | 32182 ft | 519 kts | 104° |
| 2026-05-05 20:15 | -41.55624 | -155.54820 | 32175 ft | 519 kts | 104° |
| 2026-05-05 20:15 | -41.56648 | -155.45000 | 32175 ft | 519 kts | 104° |
| 2026-05-05 20:16 | -41.57674 | -155.35080 | 32174 ft | 520 kts | 104° |
| 2026-05-05 20:16 | -41.58658 | -155.25481 | 32160 ft | 522 kts | 103° |
| 2026-05-05 20:17 | -41.59636 | -155.15861 | 32158 ft | 521 kts | 103° |
| 2026-05-05 20:17 | -41.60603 | -155.06270 | 32151 ft | 524 kts | 104° |
| 2026-05-05 20:18 | -41.61564 | -154.96639 | 32151 ft | 521 kts | 104° |
| 2026-05-05 20:18 | -41.62551 | -154.86679 | 32146 ft | 522 kts | 104° |
| 2026-05-05 20:19 | -41.63538 | -154.76625 | 32147 ft | 524 kts | 104° |
| 2026-05-05 20:19 | -41.64513 | -154.66599 | 32138 ft | 524 kts | 104° |
| 2026-05-05 20:20 | -41.65478 | -154.56576 | 32142 ft | 523 kts | 104° |
| 2026-05-05 20:20 | -41.66431 | -154.46603 | 32139 ft | 525 kts | 104° |
| 2026-05-05 20:21 | -41.67368 | -154.36684 | 32134 ft | 525 kts | 104° |
| 2026-05-05 20:21 | -41.68279 | -154.26959 | 32120 ft | 525 kts | 103° |
| 2026-05-05 20:22 | -41.69178 | -154.17278 | 32120 ft | 525 kts | 103° |
| 2026-05-05 20:22 | -41.70068 | -154.07602 | 32116 ft | 528 kts | 103° |
| 2026-05-05 20:23 | -41.70958 | -153.97821 | 32115 ft | 525 kts | 103° |
| 2026-05-05 20:23 | -41.71847 | -153.87973 | 32112 ft | 528 kts | 103° |
| 2026-05-05 20:24 | -41.72755 | -153.77794 | 32107 ft | 526 kts | 103° |
| 2026-05-05 20:24 | -41.73645 | -153.67749 | 32115 ft | 530 kts | 103° |
| 2026-05-05 20:25 | -41.74518 | -153.57756 | 32103 ft | 528 kts | 104° |
| 2026-05-05 20:25 | -41.75384 | -153.47766 | 32099 ft | 532 kts | 104° |
| 2026-05-05 20:26 | -41.76246 | -153.37709 | 32103 ft | 529 kts | 104° |
| 2026-05-05 20:26 | -41.77080 | -153.27876 | 32089 ft | 531 kts | 103° |
| 2026-05-05 20:27 | -41.77901 | -153.18108 | 32082 ft | 533 kts | 103° |
| 2026-05-05 20:27 | -41.78724 | -153.08202 | 32074 ft | 531 kts | 103° |
| 2026-05-05 20:28 | -41.79528 | -152.98428 | 32077 ft | 533 kts | 103° |
| 2026-05-05 20:28 | -41.80344 | -152.88390 | 32077 ft | 532 kts | 103° |
| 2026-05-05 20:29 | -41.81162 | -152.78233 | 32072 ft | 535 kts | 103° |
| 2026-05-05 20:29 | -41.81960 | -152.68187 | 32070 ft | 534 kts | 103° |
| 2026-05-05 20:30 | -41.82768 | -152.57918 | 32063 ft | 534 kts | 103° |
| 2026-05-05 20:30 | -41.83548 | -152.47888 | 32061 ft | 534 kts | 103° |
| 2026-05-05 20:31 | -41.84330 | -152.37720 | 32060 ft | 535 kts | 103° |
| 2026-05-05 20:31 | -41.85086 | -152.27768 | 32053 ft | 538 kts | 103° |
| 2026-05-05 20:32 | -41.85840 | -152.17731 | 32042 ft | 538 kts | 103° |
| 2026-05-05 20:32 | -41.86579 | -152.07754 | 32034 ft | 537 kts | 103° |
| 2026-05-05 20:33 | -41.87310 | -151.97790 | 32030 ft | 539 kts | 103° |
| 2026-05-05 20:33 | -41.88059 | -151.87453 | 32031 ft | 538 kts | 103° |
| 2026-05-05 20:34 | -41.88794 | -151.77182 | 32021 ft | 540 kts | 103° |
| 2026-05-05 20:34 | -41.89513 | -151.66985 | 32016 ft | 539 kts | 103° |
| 2026-05-05 20:35 | -41.90228 | -151.56722 | 32029 ft | 540 kts | 103° |
| 2026-05-05 20:35 | -41.90942 | -151.46361 | 32023 ft | 540 kts | 103° |
| 2026-05-05 20:36 | -41.91631 | -151.36194 | 32022 ft | 539 kts | 103° |
| 2026-05-05 20:36 | -41.92310 | -151.26090 | 32010 ft | 542 kts | 103° |
| 2026-05-05 20:37 | -41.92977 | -151.15977 | 32009 ft | 541 kts | 103° |
| 2026-05-05 20:37 | -41.93633 | -151.05916 | 32002 ft | 541 kts | 103° |
| 2026-05-05 20:38 | -41.94281 | -150.95847 | 32002 ft | 544 kts | 103° |
| 2026-05-05 20:38 | -41.94950 | -150.85303 | 32004 ft | 543 kts | 103° |
| 2026-05-05 20:39 | -41.95594 | -150.74988 | 31998 ft | 543 kts | 103° |
| 2026-05-05 20:39 | -41.96233 | -150.64613 | 31993 ft | 543 kts | 103° |
| 2026-05-05 20:40 | -41.96867 | -150.54199 | 31998 ft | 546 kts | 103° |
| 2026-05-05 20:40 | -41.97498 | -150.43611 | 31991 ft | 544 kts | 103° |
| 2026-05-05 20:41 | -41.98106 | -150.33290 | 31975 ft | 547 kts | 102° |
| 2026-05-05 20:41 | -41.98697 | -150.23085 | 31967 ft | 547 kts | 103° |
| 2026-05-05 20:42 | -41.99278 | -150.12894 | 31959 ft | 548 kts | 103° |
| 2026-05-05 20:42 | -41.99855 | -150.02614 | 31953 ft | 548 kts | 103° |
| 2026-05-05 20:43 | -42.00781 | -149.92604 | 31965 ft | 540 kts | 111° |
| 2026-05-05 20:43 | -42.02331 | -149.82678 | 31952 ft | 536 kts | 111° |
| 2026-05-05 20:44 | -42.03833 | -149.72772 | 31953 ft | 539 kts | 111° |
| 2026-05-05 20:44 | -42.05338 | -149.62535 | 31947 ft | 539 kts | 110° |
| 2026-05-05 20:45 | -42.07514 | -149.47362 | 31948 ft | 539 kts | 110° |
| 2026-05-05 20:45 | -42.08952 | -149.37186 | 31945 ft | 540 kts | 110° |
| 2026-05-05 20:46 | -42.10336 | -149.27295 | 31938 ft | 542 kts | 109° |
| 2026-05-05 20:46 | -42.11724 | -149.17278 | 31933 ft | 540 kts | 109° |
| 2026-05-05 20:47 | -42.13089 | -149.07352 | 31937 ft | 540 kts | 110° |
| 2026-05-05 20:47 | -42.14444 | -148.97440 | 31940 ft | 539 kts | 109° |
| 2026-05-05 20:48 | -42.15827 | -148.87248 | 31932 ft | 540 kts | 110° |
| 2026-05-05 20:48 | -42.17207 | -148.76996 | 31927 ft | 539 kts | 109° |
| 2026-05-05 20:49 | -42.18605 | -148.66556 | 31921 ft | 543 kts | 109° |
| 2026-05-05 20:49 | -42.19968 | -148.56279 | 31931 ft | 542 kts | 109° |
| 2026-05-05 20:50 | -42.21332 | -148.45941 | 31922 ft | 542 kts | 109° |
| 2026-05-05 20:50 | -42.22646 | -148.35893 | 31907 ft | 541 kts | 109° |
| 2026-05-05 20:51 | -42.23962 | -148.25769 | 31896 ft | 544 kts | 109° |
| 2026-05-05 20:51 | -42.25250 | -148.15775 | 31885 ft | 542 kts | 109° |
| 2026-05-05 20:52 | -42.26536 | -148.05742 | 31888 ft | 543 kts | 109° |
| 2026-05-05 20:52 | -42.27813 | -147.95695 | 31881 ft | 543 kts | 108° |
| 2026-05-05 20:53 | -42.29141 | -147.85170 | 31875 ft | 543 kts | 108° |
| 2026-05-05 20:53 | -42.30425 | -147.74925 | 31877 ft | 543 kts | 108° |
| 2026-05-05 20:54 | -42.31710 | -147.64572 | 31865 ft | 540 kts | 108° |
| 2026-05-05 20:54 | -42.32989 | -147.54224 | 31872 ft | 544 kts | 108° |
| 2026-05-05 20:55 | -42.34270 | -147.43750 | 31855 ft | 543 kts | 108° |
| 2026-05-05 20:55 | -42.35519 | -147.33469 | 31837 ft | 544 kts | 107° |
| 2026-05-05 20:56 | -42.36740 | -147.23340 | 31826 ft | 546 kts | 107° |
| 2026-05-05 20:56 | -42.37952 | -147.13209 | 31834 ft | 546 kts | 107° |
| 2026-05-05 20:57 | -42.39147 | -147.03130 | 31825 ft | 544 kts | 107° |
| 2026-05-05 20:57 | -42.40356 | -146.92853 | 31837 ft | 543 kts | 107° |
| 2026-05-05 20:58 | -42.41586 | -146.82341 | 31840 ft | 548 kts | 107° |
| 2026-05-05 20:58 | -42.42799 | -146.71857 | 31830 ft | 544 kts | 107° |
| 2026-05-05 20:59 | -42.44025 | -146.61194 | 31832 ft | 549 kts | 107° |
| 2026-05-05 20:59 | -42.45206 | -146.50815 | 31825 ft | 547 kts | 107° |
| 2026-05-05 21:00 | -42.46389 | -146.40340 | 31811 ft | 546 kts | 106° |
| 2026-05-05 21:00 | -42.47539 | -146.30078 | 31806 ft | 548 kts | 105° |
| 2026-05-05 21:01 | -42.48487 | -146.21547 | 31790 ft | 545 kts | 105° |
| 2026-05-05 21:01 | -42.49802 | -146.09631 | 31789 ft | 550 kts | 105° |
| 2026-05-05 21:02 | -42.50912 | -145.99455 | 31785 ft | 546 kts | 105° |
| 2026-05-05 21:02 | -42.52040 | -145.89049 | 31778 ft | 548 kts | 105° |
| 2026-05-05 21:03 | -42.53186 | -145.78368 | 31796 ft | 549 kts | 105° |
| 2026-05-05 21:03 | -42.54298 | -145.67911 | 31794 ft | 549 kts | 105° |
| 2026-05-05 21:04 | -42.55409 | -145.57375 | 31789 ft | 548 kts | 105° |
| 2026-05-05 21:04 | -42.56501 | -145.46925 | 31780 ft | 548 kts | 105° |
| 2026-05-05 21:05 | -42.57581 | -145.36504 | 31776 ft | 550 kts | 104° |
| 2026-05-05 21:05 | -42.58633 | -145.26236 | 31763 ft | 548 kts | 104° |
| 2026-05-05 21:06 | -42.59685 | -145.15894 | 31762 ft | 550 kts | 104° |
| 2026-05-05 21:06 | -42.60722 | -145.05609 | 31745 ft | 550 kts | 104° |
| 2026-05-05 21:07 | -42.61747 | -144.95326 | 31725 ft | 548 kts | 103° |
| 2026-05-05 21:07 | -42.62791 | -144.84778 | 31708 ft | 550 kts | 103° |
| 2026-05-05 21:08 | -42.63826 | -144.74202 | 31713 ft | 549 kts | 103° |
| 2026-05-05 21:08 | -42.64849 | -144.63658 | 31702 ft | 549 kts | 103° |
| 2026-05-05 21:09 | -42.65852 | -144.53214 | 31706 ft | 552 kts | 103° |
| 2026-05-05 21:09 | -42.66861 | -144.42601 | 31719 ft | 549 kts | 103° |
| 2026-05-05 21:10 | -42.67852 | -144.32075 | 31678 ft | 550 kts | 102° |
| 2026-05-05 21:10 | -42.68812 | -144.21773 | 31679 ft | 551 kts | 102° |
| 2026-05-05 21:11 | -42.69770 | -144.11398 | 31671 ft | 552 kts | 102° |
| 2026-05-05 21:11 | -42.70718 | -144.01012 | 31671 ft | 551 kts | 102° |
| 2026-05-05 21:12 | -42.71645 | -143.90752 | 31674 ft | 550 kts | 102° |
| 2026-05-05 21:12 | -42.72595 | -143.80151 | 31682 ft | 552 kts | 102° |
| 2026-05-05 21:13 | -42.73536 | -143.69513 | 31666 ft | 553 kts | 101° |
| 2026-05-05 21:13 | -42.74480 | -143.58739 | 31670 ft | 553 kts | 102° |
| 2026-05-05 21:14 | -42.75395 | -143.48175 | 31659 ft | 553 kts | 101° |
| 2026-05-05 21:14 | -42.76313 | -143.37447 | 31654 ft | 552 kts | 101° |
| 2026-05-05 21:15 | -42.77199 | -143.26997 | 31630 ft | 553 kts | 100° |
| 2026-05-05 21:15 | -42.78074 | -143.16556 | 31610 ft | 554 kts | 100° |
| 2026-05-05 21:16 | -42.78941 | -143.06094 | 31632 ft | 554 kts | 99° |
| 2026-05-05 21:16 | -42.79792 | -142.95703 | 31618 ft | 553 kts | 100° |
| 2026-05-05 21:17 | -42.80645 | -142.85172 | 31614 ft | 556 kts | 100° |
| 2026-05-05 21:17 | -42.81514 | -142.74307 | 31608 ft | 554 kts | 100° |
| 2026-05-05 21:18 | -42.82358 | -142.63634 | 31602 ft | 554 kts | 99° |
| 2026-05-05 21:18 | -42.83227 | -142.52516 | 31597 ft | 555 kts | 99° |
| 2026-05-05 21:19 | -42.84060 | -142.41721 | 31600 ft | 555 kts | 99° |
| 2026-05-05 21:19 | -42.84876 | -142.31004 | 31596 ft | 556 kts | 98° |
| 2026-05-05 21:20 | -42.85666 | -142.20503 | 31596 ft | 556 kts | 98° |
| 2026-05-05 21:20 | -42.86444 | -142.10030 | 31592 ft | 556 kts | 98° |
| 2026-05-05 21:21 | -42.87215 | -141.99524 | 31576 ft | 556 kts | 98° |
| 2026-05-05 21:21 | -42.87985 | -141.88893 | 31567 ft | 558 kts | 98° |
| 2026-05-05 21:22 | -42.88751 | -141.78175 | 31582 ft | 558 kts | 98° |
| 2026-05-05 21:22 | -42.89529 | -141.67151 | 31584 ft | 559 kts | 98° |
| 2026-05-05 21:23 | -42.90285 | -141.56280 | 31567 ft | 558 kts | 97° |
| 2026-05-05 21:23 | -42.91035 | -141.45344 | 31584 ft | 558 kts | 98° |
| 2026-05-05 21:24 | -42.91767 | -141.34521 | 31595 ft | 558 kts | 97° |
| 2026-05-05 21:24 | -42.92470 | -141.23970 | 31573 ft | 559 kts | 97° |
| 2026-05-05 21:25 | -42.93167 | -141.13368 | 31562 ft | 561 kts | 96° |
| 2026-05-05 21:25 | -42.93853 | -141.02785 | 31561 ft | 561 kts | 96° |
| 2026-05-05 21:26 | -42.94535 | -140.92113 | 31557 ft | 561 kts | 96° |
| 2026-05-05 21:26 | -42.95238 | -140.80928 | 31553 ft | 560 kts | 96° |
| 2026-05-05 21:27 | -42.95908 | -140.70125 | 31563 ft | 561 kts | 96° |
| 2026-05-05 21:27 | -42.96579 | -140.59100 | 31554 ft | 562 kts | 96° |
| 2026-05-05 21:28 | -42.97232 | -140.48222 | 31549 ft | 562 kts | 96° |
| 2026-05-05 21:28 | -42.97886 | -140.37143 | 31544 ft | 563 kts | 96° |
| 2026-05-05 21:29 | -42.98507 | -140.26454 | 31525 ft | 563 kts | 95° |
| 2026-05-05 21:29 | -42.99115 | -140.15811 | 31532 ft | 562 kts | 95° |
| 2026-05-05 21:30 | -42.99714 | -140.05158 | 31543 ft | 562 kts | 95° |
| 2026-05-05 21:30 | -43.00463 | -139.94634 | 31539 ft | 561 kts | 102° |
| 2026-05-05 21:31 | -43.02150 | -139.84178 | 31541 ft | 561 kts | 104° |
| 2026-05-05 21:31 | -43.03836 | -139.73715 | 31526 ft | 560 kts | 103° |
| 2026-05-05 21:32 | -43.05510 | -139.62955 | 31525 ft | 562 kts | 103° |
| 2026-05-05 21:32 | -43.07169 | -139.52039 | 31530 ft | 560 kts | 103° |
| 2026-05-05 21:33 | -43.08773 | -139.41312 | 31528 ft | 562 kts | 103° |
| 2026-05-05 21:33 | -43.10368 | -139.30505 | 31505 ft | 561 kts | 102° |
| 2026-05-05 21:34 | -43.11904 | -139.20001 | 31503 ft | 562 kts | 102° |
| 2026-05-05 21:34 | -43.13420 | -139.09544 | 31505 ft | 561 kts | 101° |
| 2026-05-05 21:35 | -43.14922 | -138.99104 | 31513 ft | 560 kts | 101° |
| 2026-05-05 21:35 | -43.16415 | -138.88647 | 31505 ft | 560 kts | 101° |
| 2026-05-05 21:36 | -43.17977 | -138.77629 | 31502 ft | 561 kts | 101° |
| 2026-05-05 21:36 | -43.19478 | -138.66960 | 31503 ft | 558 kts | 101° |
| 2026-05-05 21:37 | -43.21003 | -138.56043 | 31499 ft | 559 kts | 101° |
| 2026-05-05 21:37 | -43.22479 | -138.45393 | 31489 ft | 559 kts | 101° |
| 2026-05-05 21:38 | -43.23976 | -138.34518 | 31494 ft | 559 kts | 101° |
| 2026-05-05 21:38 | -43.25419 | -138.23961 | 31479 ft | 558 kts | 100° |
| 2026-05-05 21:39 | -43.26839 | -138.13493 | 31485 ft | 557 kts | 101° |
| 2026-05-05 21:39 | -43.28241 | -138.03085 | 31475 ft | 558 kts | 100° |
| 2026-05-05 21:40 | -43.29655 | -137.92508 | 31471 ft | 558 kts | 100° |
| 2026-05-05 21:40 | -43.31054 | -137.81967 | 31463 ft | 557 kts | 100° |
| 2026-05-05 21:41 | -43.32497 | -137.71017 | 31471 ft | 558 kts | 100° |
| 2026-05-05 21:41 | -43.33906 | -137.60240 | 31469 ft | 557 kts | 100° |
| 2026-05-05 21:42 | -43.35319 | -137.49342 | 31481 ft | 556 kts | 100° |
| 2026-05-05 21:42 | -43.36697 | -137.38644 | 31465 ft | 555 kts | 100° |
| 2026-05-05 21:43 | -43.38055 | -137.28012 | 31458 ft | 554 kts | 99° |
| 2026-05-05 21:43 | -43.39377 | -137.17583 | 31452 ft | 555 kts | 99° |
| 2026-05-05 21:44 | -43.40693 | -137.07117 | 31452 ft | 553 kts | 99° |
| 2026-05-05 21:44 | -43.41995 | -136.96689 | 31447 ft | 554 kts | 99° |
| 2026-05-05 21:45 | -43.43335 | -136.85869 | 31442 ft | 553 kts | 99° |
| 2026-05-05 21:45 | -43.44655 | -136.75131 | 31446 ft | 554 kts | 99° |
| 2026-05-05 21:46 | -43.45962 | -136.64400 | 31445 ft | 553 kts | 99° |
| 2026-05-05 21:46 | -43.47256 | -136.53697 | 31447 ft | 553 kts | 98° |
| 2026-05-05 21:47 | -43.48577 | -136.42676 | 31445 ft | 552 kts | 99° |
| 2026-05-05 21:47 | -43.49830 | -136.32140 | 31433 ft | 552 kts | 98° |
| 2026-05-05 21:48 | -43.51059 | -136.21719 | 31430 ft | 551 kts | 98° |
| 2026-05-05 21:48 | -43.52283 | -136.11255 | 31426 ft | 551 kts | 97° |
| 2026-05-05 21:49 | -43.53490 | -136.00853 | 31419 ft | 550 kts | 98° |
| 2026-05-05 21:49 | -43.54703 | -135.90315 | 31424 ft | 550 kts | 97° |
| 2026-05-05 21:50 | -43.55944 | -135.79427 | 31424 ft | 550 kts | 97° |
| 2026-05-05 21:50 | -43.57156 | -135.68716 | 31422 ft | 548 kts | 97° |
| 2026-05-05 21:51 | -43.58373 | -135.57863 | 31414 ft | 550 kts | 97° |
| 2026-05-05 21:51 | -43.59552 | -135.47249 | 31419 ft | 549 kts | 97° |
| 2026-05-05 21:52 | -43.61321 | -135.31154 | 31417 ft | 549 kts | 96° |
| 2026-05-05 21:53 | -43.62456 | -135.20714 | 31408 ft | 547 kts | 96° |
| 2026-05-05 21:53 | -43.63577 | -135.10312 | 31407 ft | 547 kts | 96° |
| 2026-05-05 21:54 | -43.64688 | -134.99905 | 31409 ft | 547 kts | 96° |
| 2026-05-05 21:54 | -43.65796 | -134.89442 | 31407 ft | 546 kts | 96° |
| 2026-05-05 21:55 | -43.66941 | -134.78528 | 31399 ft | 546 kts | 96° |
| 2026-05-05 21:55 | -43.68044 | -134.67911 | 31397 ft | 544 kts | 96° |
| 2026-05-05 21:56 | -43.69160 | -134.57071 | 31404 ft | 545 kts | 96° |
| 2026-05-05 21:56 | -43.70246 | -134.46420 | 31410 ft | 544 kts | 96° |
| 2026-05-05 21:57 | -43.71346 | -134.35524 | 31414 ft | 545 kts | 96° |
| 2026-05-05 21:57 | -43.72385 | -134.25137 | 31403 ft | 543 kts | 95° |
| 2026-05-05 21:58 | -43.73414 | -134.14755 | 31410 ft | 543 kts | 95° |
| 2026-05-05 21:58 | -43.74427 | -134.04427 | 31393 ft | 542 kts | 95° |
| 2026-05-05 21:59 | -43.75438 | -133.94025 | 31388 ft | 542 kts | 95° |
| 2026-05-05 21:59 | -43.76452 | -133.83496 | 31380 ft | 542 kts | 95° |
| 2026-05-05 22:00 | -43.77480 | -133.72708 | 31386 ft | 541 kts | 95° |
| 2026-05-05 22:00 | -43.78486 | -133.62041 | 31394 ft | 540 kts | 95° |
| 2026-05-05 22:01 | -43.79469 | -133.51520 | 31394 ft | 539 kts | 95° |
| 2026-05-05 22:01 | -43.80446 | -133.40944 | 31389 ft | 540 kts | 95° |
| 2026-05-05 22:02 | -43.81421 | -133.30284 | 31383 ft | 539 kts | 95° |
| 2026-05-05 22:02 | -43.82350 | -133.20026 | 31385 ft | 538 kts | 94° |
| 2026-05-05 22:03 | -43.83274 | -133.09709 | 31384 ft | 538 kts | 95° |
| 2026-05-05 22:03 | -43.84186 | -132.99428 | 31384 ft | 538 kts | 94° |
| 2026-05-05 22:04 | -43.85112 | -132.88875 | 31382 ft | 538 kts | 94° |
| 2026-05-05 22:04 | -43.86041 | -132.78174 | 31385 ft | 538 kts | 94° |
| 2026-05-05 22:05 | -43.86943 | -132.67662 | 31393 ft | 536 kts | 94° |
| 2026-05-05 22:05 | -43.87853 | -132.56937 | 31396 ft | 537 kts | 94° |
| 2026-05-05 22:06 | -43.88744 | -132.46323 | 31399 ft | 536 kts | 94° |
| 2026-05-05 22:06 | -43.89629 | -132.35657 | 31391 ft | 537 kts | 94° |
| 2026-05-05 22:07 | -43.90471 | -132.25398 | 31377 ft | 536 kts | 94° |
| 2026-05-05 22:07 | -43.91305 | -132.15123 | 31386 ft | 535 kts | 94° |
| 2026-05-05 22:08 | -43.92127 | -132.04869 | 31382 ft | 535 kts | 94° |
| 2026-05-05 22:08 | -43.92955 | -131.94431 | 31379 ft | 535 kts | 94° |
| 2026-05-05 22:09 | -43.93785 | -131.83836 | 31377 ft | 536 kts | 93° |
| 2026-05-05 22:09 | -43.94620 | -131.73041 | 31396 ft | 536 kts | 93° |
| 2026-05-05 22:10 | -43.95426 | -131.62499 | 31394 ft | 536 kts | 93° |
| 2026-05-05 22:10 | -43.96223 | -131.51939 | 31398 ft | 536 kts | 93° |
| 2026-05-05 22:11 | -43.97004 | -131.41467 | 31387 ft | 536 kts | 93° |
| 2026-05-05 22:11 | -43.97776 | -131.30981 | 31375 ft | 534 kts | 92° |
| 2026-05-05 22:12 | -43.98523 | -131.20717 | 31372 ft | 534 kts | 92° |
| 2026-05-05 22:12 | -43.99260 | -131.10448 | 31374 ft | 534 kts | 92° |
| 2026-05-05 22:13 | -43.99885 | -131.00162 | 31380 ft | 531 kts | 87° |
| 2026-05-05 22:13 | -43.99990 | -130.89949 | 31378 ft | 531 kts | 86° |
| 2026-05-05 22:14 | -44.00043 | -130.79675 | 31381 ft | 531 kts | 86° |
| 2026-05-05 22:14 | -44.00078 | -130.69124 | 31391 ft | 530 kts | 86° |
| 2026-05-05 22:15 | -44.00097 | -130.58705 | 31401 ft | 529 kts | 86° |
| 2026-05-05 22:15 | -44.00104 | -130.48201 | 31395 ft | 530 kts | 86° |
| 2026-05-05 22:16 | -44.00100 | -130.37805 | 31392 ft | 530 kts | 86° |
| 2026-05-05 22:16 | -44.00085 | -130.27524 | 31378 ft | 529 kts | 85° |
| 2026-05-05 22:17 | -44.00061 | -130.17212 | 31374 ft | 529 kts | 85° |
| 2026-05-05 22:17 | -44.00028 | -130.07024 | 31379 ft | 530 kts | 85° |
| 2026-05-05 22:18 | -44.00029 | -129.96745 | 31378 ft | 529 kts | 89° |
| 2026-05-05 22:18 | -44.00495 | -129.86494 | 31371 ft | 531 kts | 90° |
| 2026-05-05 22:19 | -44.00975 | -129.75998 | 31378 ft | 531 kts | 89° |
| 2026-05-05 22:19 | -44.01438 | -129.65279 | 31392 ft | 530 kts | 89° |
| 2026-05-05 22:20 | -44.01870 | -129.54842 | 31390 ft | 530 kts | 89° |
| 2026-05-05 22:20 | -44.02298 | -129.44128 | 31383 ft | 528 kts | 89° |
| 2026-05-05 22:21 | -44.02700 | -129.33739 | 31375 ft | 530 kts | 88° |
| 2026-05-05 22:21 | -44.03085 | -129.23498 | 31375 ft | 528 kts | 88° |
| 2026-05-05 22:22 | -44.03459 | -129.13309 | 31371 ft | 528 kts | 88° |
| 2026-05-05 22:22 | -44.03823 | -129.03119 | 31374 ft | 527 kts | 88° |
| 2026-05-05 22:23 | -44.04188 | -128.92613 | 31359 ft | 528 kts | 88° |
| 2026-05-05 22:23 | -44.04545 | -128.82092 | 31360 ft | 526 kts | 87° |
| 2026-05-05 22:24 | -44.04889 | -128.71637 | 31349 ft | 526 kts | 88° |
| 2026-05-05 22:24 | -44.05230 | -128.60989 | 31353 ft | 526 kts | 87° |
| 2026-05-05 22:25 | -44.05558 | -128.50412 | 31353 ft | 528 kts | 87° |
| 2026-05-05 22:25 | -44.05872 | -128.39984 | 31361 ft | 528 kts | 87° |
| 2026-05-05 22:26 | -44.06172 | -128.29748 | 31350 ft | 526 kts | 86° |
| 2026-05-05 22:26 | -44.06461 | -128.19548 | 31354 ft | 527 kts | 86° |
| 2026-05-05 22:27 | -44.06740 | -128.09409 | 31352 ft | 522 kts | 86° |
| 2026-05-05 22:27 | -44.07009 | -127.99252 | 31339 ft | 525 kts | 86° |
| 2026-05-05 22:28 | -44.07277 | -127.88789 | 31339 ft | 525 kts | 86° |
| 2026-05-05 22:28 | -44.07534 | -127.78441 | 31342 ft | 523 kts | 85° |
| 2026-05-05 22:29 | -44.07782 | -127.68058 | 31343 ft | 522 kts | 85° |
| 2026-05-05 22:29 | -44.08018 | -127.57779 | 31342 ft | 522 kts | 85° |
| 2026-05-05 22:30 | -44.08250 | -127.47207 | 31336 ft | 522 kts | 85° |
| 2026-05-05 22:30 | -44.08470 | -127.36838 | 31340 ft | 519 kts | 85° |
| 2026-05-05 22:31 | -44.08674 | -127.26758 | 31338 ft | 517 kts | 84° |
| 2026-05-05 22:31 | -44.08866 | -127.16806 | 31341 ft | 519 kts | 84° |
| 2026-05-05 22:32 | -44.09053 | -127.06724 | 31340 ft | 514 kts | 84° |
| 2026-05-05 22:32 | -44.09227 | -126.96819 | 31339 ft | 516 kts | 83° |
| 2026-05-05 22:33 | -44.09401 | -126.86402 | 31317 ft | 515 kts | 84° |
| 2026-05-05 22:33 | -44.09563 | -126.76106 | 31321 ft | 518 kts | 84° |
| 2026-05-05 22:34 | -44.09722 | -126.65526 | 31338 ft | 514 kts | 84° |
| 2026-05-05 22:34 | -44.09864 | -126.55281 | 31332 ft | 516 kts | 84° |
| 2026-05-05 22:35 | -44.10003 | -126.44757 | 31341 ft | 515 kts | 83° |
| 2026-05-05 22:35 | -44.10123 | -126.34812 | 31329 ft | 517 kts | 83° |
| 2026-05-05 22:36 | -44.10237 | -126.24818 | 31303 ft | 514 kts | 83° |
| 2026-05-05 22:36 | -44.10341 | -126.14811 | 31292 ft | 516 kts | 83° |
| 2026-05-05 22:37 | -44.10437 | -126.04820 | 31301 ft | 515 kts | 83° |
| 2026-05-05 22:37 | -44.10524 | -125.94825 | 31298 ft | 514 kts | 83° |
| 2026-05-05 22:38 | -44.10602 | -125.84678 | 31290 ft | 518 kts | 83° |
| 2026-05-05 22:38 | -44.10673 | -125.74636 | 31302 ft | 517 kts | 83° |
| 2026-05-05 22:39 | -44.10734 | -125.64452 | 31294 ft | 518 kts | 83° |
| 2026-05-05 22:39 | -44.10786 | -125.54347 | 31304 ft | 522 kts | 83° |
| 2026-05-05 22:40 | -44.10831 | -125.43982 | 31301 ft | 521 kts | 83° |
| 2026-05-05 22:40 | -44.10866 | -125.33769 | 31295 ft | 520 kts | 82° |
| 2026-05-05 22:41 | -44.10891 | -125.23651 | 31291 ft | 523 kts | 82° |
| 2026-05-05 22:41 | -44.10907 | -125.13462 | 31290 ft | 523 kts | 82° |
| 2026-05-05 22:42 | -44.10915 | -125.03323 | 31295 ft | 525 kts | 82° |
| 2026-05-05 22:42 | -44.10914 | -124.93124 | 31293 ft | 523 kts | 82° |
| 2026-05-05 22:43 | -44.10901 | -124.82885 | 31291 ft | 529 kts | 82° |
| 2026-05-05 22:43 | -44.10883 | -124.72564 | 31282 ft | 527 kts | 82° |
| 2026-05-05 22:44 | -44.10851 | -124.61868 | 31278 ft | 530 kts | 82° |
| 2026-05-05 22:44 | -44.10813 | -124.51514 | 31283 ft | 529 kts | 82° |
| 2026-05-05 22:45 | -44.10764 | -124.41003 | 31277 ft | 530 kts | 82° |
| 2026-05-05 22:45 | -44.10705 | -124.30659 | 31279 ft | 531 kts | 81° |
| 2026-05-05 22:46 | -44.10639 | -124.20361 | 31275 ft | 532 kts | 81° |
| 2026-05-05 22:46 | -44.10564 | -124.10063 | 31272 ft | 530 kts | 80° |
| 2026-05-05 22:47 | -44.10476 | -123.99593 | 31286 ft | 531 kts | 80° |
| 2026-05-05 22:47 | -44.10379 | -123.89204 | 31273 ft | 533 kts | 81° |
| 2026-05-05 22:48 | -44.10273 | -123.78729 | 31252 ft | 537 kts | 81° |
| 2026-05-05 22:48 | -44.10159 | -123.68263 | 31254 ft | 534 kts | 80° |
| 2026-05-05 22:49 | -44.10030 | -123.57539 | 31262 ft | 536 kts | 81° |
| 2026-05-05 22:49 | -44.09891 | -123.46789 | 31257 ft | 538 kts | 81° |
| 2026-05-05 22:50 | -44.09742 | -123.36037 | 31257 ft | 538 kts | 80° |
| 2026-05-05 22:50 | -44.09591 | -123.25633 | 31240 ft | 535 kts | 79° |
| 2026-05-05 22:51 | -44.09423 | -123.15155 | 31242 ft | 542 kts | 79° |
| 2026-05-05 22:51 | -44.09251 | -123.04588 | 31247 ft | 536 kts | 79° |
| 2026-05-05 22:52 | -44.09060 | -122.93882 | 31232 ft | 544 kts | 80° |
| 2026-05-05 22:52 | -44.08857 | -122.82825 | 31244 ft | 545 kts | 79° |
| 2026-05-05 22:53 | -44.08645 | -122.71938 | 31237 ft | 548 kts | 79° |
| 2026-05-05 22:53 | -44.08417 | -122.60784 | 31229 ft | 549 kts | 78° |
| 2026-05-05 22:54 | -44.08185 | -122.49854 | 31238 ft | 548 kts | 79° |
| 2026-05-05 22:54 | -44.07930 | -122.38547 | 31254 ft | 555 kts | 78° |
| 2026-05-05 22:55 | -44.07676 | -122.27576 | 31214 ft | 555 kts | 77° |
| 2026-05-05 22:55 | -44.07413 | -122.16727 | 31225 ft | 554 kts | 77° |
| 2026-05-05 22:56 | -44.07146 | -122.06048 | 31225 ft | 555 kts | 77° |
| 2026-05-05 22:56 | -44.06847 | -121.94714 | 31222 ft | 557 kts | 77° |
| 2026-05-05 22:57 | -44.06547 | -121.83606 | 31218 ft | 558 kts | 77° |
| 2026-05-05 22:57 | -44.06229 | -121.72292 | 31221 ft | 558 kts | 77° |
| 2026-05-05 22:58 | -44.05910 | -121.61276 | 31220 ft | 559 kts | 77° |
| 2026-05-05 22:58 | -44.05563 | -121.49706 | 31207 ft | 554 kts | 77° |
| 2026-05-05 22:59 | -44.05217 | -121.38696 | 31221 ft | 564 kts | 77° |
| 2026-05-05 22:59 | -44.04867 | -121.27631 | 31185 ft | 554 kts | 75° |
| 2026-05-05 23:00 | -44.04322 | -121.11342 | 31190 ft | 560 kts | 76° |
| 2026-05-05 23:00 | -44.03935 | -121.00151 | 31194 ft | 564 kts | 76° |
| 2026-05-05 23:01 | -44.03542 | -120.88991 | 31211 ft | 563 kts | 76° |
| 2026-05-05 23:01 | -44.03130 | -120.77711 | 31204 ft | 565 kts | 76° |
| 2026-05-05 23:02 | -44.02703 | -120.66277 | 31215 ft | 562 kts | 76° |
| 2026-05-05 23:02 | -44.02275 | -120.55111 | 31226 ft | 562 kts | 76° |
| 2026-05-05 23:03 | -44.01824 | -120.43656 | 31214 ft | 561 kts | 76° |
| 2026-05-05 23:03 | -44.01376 | -120.32564 | 31198 ft | 563 kts | 76° |
| 2026-05-05 23:04 | -44.00915 | -120.21503 | 31207 ft | 569 kts | 76° |
| 2026-05-05 23:04 | -44.00458 | -120.10554 | 31187 ft | 557 kts | 76° |
| 2026-05-05 23:05 | -43.99966 | -119.99277 | 31193 ft | 566 kts | 76° |
| 2026-05-05 23:05 | -43.99940 | -119.93722 | 31185 ft | 578 kts | 84° |
| 2026-05-05 23:05 | -44.00219 | -119.88163 | 31180 ft | 576 kts | 85° |
| 2026-05-05 23:06 | -44.00821 | -119.76727 | 31202 ft | 582 kts | 85° |
| 2026-05-05 23:06 | -44.01355 | -119.65466 | 31212 ft | 582 kts | 85° |
| 2026-05-05 23:07 | -44.01860 | -119.54015 | 31203 ft | 583 kts | 84° |
| 2026-05-05 23:07 | -44.02329 | -119.42604 | 31200 ft | 583 kts | 84° |
| 2026-05-05 23:08 | -44.02780 | -119.31205 | 31183 ft | 582 kts | 84° |
| 2026-05-05 23:08 | -44.03207 | -119.19918 | 31192 ft | 584 kts | 84° |
| 2026-05-05 23:09 | -44.03621 | -119.08669 | 31190 ft | 581 kts | 85° |
| 2026-05-05 23:09 | -44.04020 | -118.97341 | 31186 ft | 584 kts | 85° |
| 2026-05-05 23:10 | -44.04415 | -118.85904 | 31203 ft | 580 kts | 85° |
| 2026-05-05 23:10 | -44.04788 | -118.74609 | 31211 ft | 588 kts | 84° |
| 2026-05-05 23:11 | -44.05156 | -118.63292 | 31212 ft | 582 kts | 85° |
| 2026-05-05 23:11 | -44.05511 | -118.51849 | 31220 ft | 588 kts | 85° |
| 2026-05-05 23:12 | -44.05860 | -118.40413 | 31223 ft | 585 kts | 86° |
| 2026-05-05 23:12 | -44.06192 | -118.28958 | 31211 ft | 589 kts | 85° |
| 2026-05-05 23:13 | -44.06515 | -118.17607 | 31204 ft | 584 kts | 85° |
| 2026-05-05 23:13 | -44.06823 | -118.06278 | 31215 ft | 586 kts | 85° |
| 2026-05-05 23:14 | -44.07126 | -117.94675 | 31222 ft | 591 kts | 85° |
| 2026-05-05 23:14 | -44.07417 | -117.83155 | 31240 ft | 589 kts | 85° |
| 2026-05-05 23:15 | -44.07700 | -117.71492 | 31236 ft | 590 kts | 85° |
| 2026-05-05 23:15 | -44.07964 | -117.60088 | 31242 ft | 593 kts | 85° |
| 2026-05-05 23:16 | -44.08218 | -117.48688 | 31247 ft | 591 kts | 85° |
| 2026-05-05 23:16 | -44.08463 | -117.37069 | 31254 ft | 594 kts | 86° |
| 2026-05-05 23:17 | -44.08698 | -117.25593 | 31238 ft | 587 kts | 84° |
| 2026-05-05 23:17 | -44.08914 | -117.14211 | 31238 ft | 592 kts | 85° |
| 2026-05-05 23:18 | -44.09124 | -117.02593 | 31253 ft | 592 kts | 85° |
| 2026-05-05 23:18 | -44.09324 | -116.91065 | 31263 ft | 589 kts | 86° |
| 2026-05-05 23:19 | -44.09509 | -116.79521 | 31273 ft | 591 kts | 86° |
| 2026-05-05 23:19 | -44.09685 | -116.67959 | 31282 ft | 590 kts | 86° |
| 2026-05-05 23:20 | -44.09850 | -116.56340 | 31284 ft | 589 kts | 85° |
| 2026-05-05 23:20 | -44.10002 | -116.44762 | 31284 ft | 591 kts | 86° |
| 2026-05-05 23:21 | -44.10143 | -116.33099 | 31267 ft | 591 kts | 85° |
| 2026-05-05 23:21 | -44.10271 | -116.21600 | 31270 ft | 590 kts | 85° |
| 2026-05-05 23:22 | -44.10387 | -116.10138 | 31272 ft | 591 kts | 86° |
| 2026-05-05 23:22 | -44.10492 | -115.98602 | 31279 ft | 590 kts | 86° |
| 2026-05-05 23:23 | -44.10586 | -115.86932 | 31303 ft | 592 kts | 86° |
| 2026-05-05 23:23 | -44.10669 | -115.75255 | 31298 ft | 591 kts | 86° |
| 2026-05-05 23:24 | -44.10739 | -115.63641 | 31295 ft | 593 kts | 86° |
| 2026-05-05 23:24 | -44.10798 | -115.52008 | 31304 ft | 592 kts | 86° |
| 2026-05-05 23:25 | -44.10844 | -115.40298 | 31321 ft | 597 kts | 86° |
| 2026-05-05 23:25 | -44.10880 | -115.28691 | 31294 ft | 592 kts | 85° |
| 2026-05-05 23:26 | -44.10903 | -115.17223 | 31295 ft | 594 kts | 85° |
| 2026-05-05 23:26 | -44.10915 | -115.05643 | 31311 ft | 592 kts | 85° |
| 2026-05-05 23:27 | -44.10914 | -114.93915 | 31325 ft | 594 kts | 85° |
| 2026-05-05 23:27 | -44.10902 | -114.82371 | 31325 ft | 596 kts | 85° |
| 2026-05-05 23:28 | -44.10880 | -114.70719 | 31338 ft | 590 kts | 85° |
| 2026-05-05 23:28 | -44.10843 | -114.59054 | 31340 ft | 590 kts | 86° |
| 2026-05-05 23:29 | -44.10796 | -114.47494 | 31349 ft | 591 kts | 86° |
| 2026-05-05 23:29 | -44.10737 | -114.35853 | 31355 ft | 587 kts | 86° |
| 2026-05-05 23:30 | -44.10667 | -114.24442 | 31346 ft | 588 kts | 86° |
| 2026-05-05 23:30 | -44.10587 | -114.12980 | 31360 ft | 585 kts | 85° |
| 2026-05-05 23:31 | -44.10495 | -114.01659 | 31372 ft | 584 kts | 85° |
| 2026-05-05 23:31 | -44.10389 | -113.90105 | 31374 ft | 586 kts | 86° |
| 2026-05-05 23:32 | -44.10273 | -113.78587 | 31383 ft | 584 kts | 86° |
| 2026-05-05 23:32 | -44.10144 | -113.67027 | 31381 ft | 589 kts | 85° |
| 2026-05-05 23:33 | -44.10006 | -113.55598 | 31382 ft | 585 kts | 86° |
| 2026-05-05 23:33 | -44.09854 | -113.43967 | 31397 ft | 586 kts | 86° |
| 2026-05-05 23:34 | -44.09690 | -113.32400 | 31382 ft | 587 kts | 85° |
| 2026-05-05 23:34 | -44.09520 | -113.21063 | 31396 ft | 583 kts | 85° |
| 2026-05-05 23:35 | -44.09336 | -113.09668 | 31386 ft | 583 kts | 85° |
| 2026-05-05 23:35 | -44.09137 | -112.98060 | 31399 ft | 586 kts | 85° |
| 2026-05-05 23:36 | -44.08929 | -112.86597 | 31399 ft | 587 kts | 86° |
| 2026-05-05 23:36 | -44.08709 | -112.75061 | 31420 ft | 586 kts | 85° |
| 2026-05-05 23:37 | -44.08476 | -112.63546 | 31428 ft | 590 kts | 86° |
| 2026-05-05 23:37 | -44.08231 | -112.51922 | 31437 ft | 589 kts | 85° |
| 2026-05-05 23:38 | -44.07976 | -112.40424 | 31438 ft | 590 kts | 86° |
| 2026-05-05 23:38 | -44.07706 | -112.28762 | 31420 ft | 589 kts | 84° |
| 2026-05-05 23:39 | -44.07428 | -112.17313 | 31430 ft | 596 kts | 85° |
| 2026-05-05 23:39 | -44.07139 | -112.05800 | 31431 ft | 592 kts | 85° |
| 2026-05-05 23:40 | -44.06836 | -111.94203 | 31447 ft | 593 kts | 86° |
| 2026-05-05 23:40 | -44.06514 | -111.82391 | 31450 ft | 596 kts | 85° |
| 2026-05-05 23:41 | -44.06188 | -111.70833 | 31461 ft | 592 kts | 86° |
| 2026-05-05 23:41 | -44.05844 | -111.59083 | 31471 ft | 594 kts | 86° |
| 2026-05-05 23:42 | -44.05495 | -111.47536 | 31482 ft | 590 kts | 86° |
| 2026-05-05 23:42 | -44.05127 | -111.35805 | 31474 ft | 596 kts | 85° |
| 2026-05-05 23:43 | -44.04754 | -111.24256 | 31456 ft | 593 kts | 85° |
| 2026-05-05 23:43 | -44.04371 | -111.12736 | 31458 ft | 591 kts | 85° |
| 2026-05-05 23:44 | -44.03974 | -111.01204 | 31469 ft | 593 kts | 86° |
| 2026-05-05 23:44 | -44.03565 | -110.89618 | 31477 ft | 590 kts | 85° |
| 2026-05-05 23:45 | -44.03146 | -110.78101 | 31485 ft | 591 kts | 85° |
| 2026-05-05 23:45 | -44.02709 | -110.66415 | 31503 ft | 595 kts | 85° |
| 2026-05-05 23:46 | -44.02267 | -110.54892 | 31505 ft | 592 kts | 86° |
| 2026-05-05 23:46 | -44.01812 | -110.43347 | 31515 ft | 592 kts | 86° |
| 2026-05-05 23:47 | -44.01344 | -110.31772 | 31511 ft | 592 kts | 85° |
| 2026-05-05 23:47 | -44.00870 | -110.20328 | 31514 ft | 594 kts | 85° |
| 2026-05-05 23:48 | -44.00384 | -110.08862 | 31516 ft | 588 kts | 85° |
| 2026-05-05 23:48 | -43.99899 | -109.97294 | 31507 ft | 593 kts | 89° |
| 2026-05-05 23:49 | -44.00325 | -109.85868 | 31528 ft | 592 kts | 95° |
| 2026-05-05 23:49 | -44.00932 | -109.74213 | 31535 ft | 591 kts | 95° |
| 2026-05-05 23:50 | -44.01472 | -109.62705 | 31539 ft | 588 kts | 94° |
| 2026-05-05 23:50 | -44.01968 | -109.51291 | 31546 ft | 588 kts | 93° |
| 2026-05-05 23:51 | -44.02439 | -109.39814 | 31559 ft | 585 kts | 93° |
| 2026-05-05 23:51 | -44.02887 | -109.28365 | 31551 ft | 583 kts | 93° |
| 2026-05-05 23:52 | -44.03312 | -109.17073 | 31561 ft | 586 kts | 92° |
| 2026-05-05 23:52 | -44.03726 | -109.05682 | 31573 ft | 583 kts | 93° |
| 2026-05-05 23:53 | -44.04126 | -108.94318 | 31588 ft | 583 kts | 92° |
| 2026-05-05 23:53 | -44.04519 | -108.82786 | 31588 ft | 582 kts | 92° |
| 2026-05-05 23:54 | -44.04897 | -108.71342 | 31608 ft | 581 kts | 93° |
| 2026-05-05 23:54 | -44.05265 | -108.59834 | 31608 ft | 581 kts | 93° |
| 2026-05-05 23:55 | -44.05621 | -108.48327 | 31622 ft | 581 kts | 94° |
| 2026-05-05 23:55 | -44.05965 | -108.36815 | 31632 ft | 582 kts | 94° |
| 2026-05-05 23:56 | -44.06290 | -108.25594 | 31609 ft | 579 kts | 93° |
| 2026-05-05 23:56 | -44.06604 | -108.14355 | 31609 ft | 583 kts | 92° |
| 2026-05-05 23:57 | -44.06912 | -108.02929 | 31628 ft | 580 kts | 92° |
| 2026-05-05 23:57 | -44.07210 | -107.91443 | 31634 ft | 583 kts | 93° |
| 2026-05-05 23:58 | -44.07496 | -107.79970 | 31640 ft | 579 kts | 93° |
| 2026-05-05 23:58 | -44.07773 | -107.68404 | 31662 ft | 583 kts | 93° |
| 2026-05-05 23:59 | -44.08042 | -107.56653 | 31674 ft | 581 kts | 93° |
| 2026-05-05 23:59 | -44.08291 | -107.45275 | 31687 ft | 579 kts | 93° |
| 2026-05-06 00:00 | -44.08534 | -107.33679 | 31694 ft | 582 kts | 92° |
| 2026-05-06 00:00 | -44.08758 | -107.22405 | 31687 ft | 581 kts | 93° |
| 2026-05-06 00:01 | -44.08971 | -107.11173 | 31699 ft | 583 kts | 93° |
| 2026-05-06 00:01 | -44.09173 | -106.99898 | 31695 ft | 581 kts | 92° |
| 2026-05-06 00:02 | -44.09371 | -106.88180 | 31690 ft | 580 kts | 93° |
| 2026-05-06 00:02 | -44.09552 | -106.76806 | 31717 ft | 581 kts | 92° |
| 2026-05-06 00:03 | -44.09728 | -106.65070 | 31726 ft | 580 kts | 93° |
| 2026-05-06 00:03 | -44.09883 | -106.53828 | 31748 ft | 579 kts | 93° |
| 2026-05-06 00:04 | -44.10037 | -106.41945 | 31760 ft | 579 kts | 92° |
| 2026-05-06 00:04 | -44.10170 | -106.30691 | 31736 ft | 578 kts | 93° |
| 2026-05-06 00:05 | -44.10351 | -106.13805 | 31751 ft | 580 kts | 92° |
| 2026-05-06 00:06 | -44.10459 | -106.02354 | 31769 ft | 580 kts | 93° |
| 2026-05-06 00:06 | -44.10555 | -105.90972 | 31773 ft | 578 kts | 92° |
| 2026-05-06 00:07 | -44.10640 | -105.79470 | 31767 ft | 579 kts | 93° |
| 2026-05-06 00:07 | -44.10713 | -105.68142 | 31767 ft | 579 kts | 93° |
| 2026-05-06 00:08 | -44.10777 | -105.56531 | 31784 ft | 581 kts | 92° |
| 2026-05-06 00:08 | -44.10827 | -105.45033 | 31786 ft | 579 kts | 93° |
| 2026-05-06 00:09 | -44.10866 | -105.33685 | 31795 ft | 580 kts | 92° |
| 2026-05-06 00:09 | -44.10893 | -105.22400 | 31793 ft | 578 kts | 92° |
| 2026-05-06 00:10 | -44.10910 | -105.11208 | 31810 ft | 583 kts | 92° |
| 2026-05-06 00:10 | -44.10916 | -104.99988 | 31817 ft | 578 kts | 92° |
| 2026-05-06 00:11 | -44.10910 | -104.88341 | 31842 ft | 582 kts | 92° |
| 2026-05-06 00:11 | -44.10892 | -104.76846 | 31851 ft | 579 kts | 93° |
| 2026-05-06 00:12 | -44.10863 | -104.65133 | 31854 ft | 581 kts | 92° |
| 2026-05-06 00:12 | -44.10822 | -104.53706 | 31871 ft | 580 kts | 92° |
| 2026-05-06 00:13 | -44.10768 | -104.41771 | 31882 ft | 580 kts | 92° |
| 2026-05-06 00:13 | -44.10705 | -104.30398 | 31868 ft | 581 kts | 91° |
| 2026-05-06 00:14 | -44.10632 | -104.19214 | 31877 ft | 581 kts | 91° |
| 2026-05-06 00:14 | -44.10546 | -104.07959 | 31888 ft | 579 kts | 92° |
| 2026-05-06 00:15 | -44.10446 | -103.96236 | 31893 ft | 580 kts | 92° |
| 2026-05-06 00:15 | -44.10338 | -103.84956 | 31898 ft | 579 kts | 92° |
| 2026-05-06 00:16 | -44.10213 | -103.73071 | 31923 ft | 581 kts | 92° |
| 2026-05-06 00:16 | -44.10081 | -103.61699 | 31915 ft | 580 kts | 92° |
| 2026-05-06 00:17 | -44.09932 | -103.49817 | 31923 ft | 582 kts | 92° |
| 2026-05-06 00:17 | -44.09777 | -103.38420 | 31919 ft | 580 kts | 92° |
| 2026-05-06 00:18 | -44.09610 | -103.26995 | 31931 ft | 581 kts | 91° |
| 2026-05-06 00:18 | -44.09433 | -103.15655 | 31932 ft | 580 kts | 91° |
| 2026-05-06 00:19 | -44.09246 | -103.04401 | 31944 ft | 579 kts | 92° |
| 2026-05-06 00:19 | -44.09047 | -102.92999 | 31958 ft | 579 kts | 92° |
| 2026-05-06 00:20 | -44.08835 | -102.81589 | 31964 ft | 581 kts | 91° |
| 2026-05-06 00:20 | -44.08609 | -102.70013 | 31969 ft | 582 kts | 92° |
| 2026-05-06 00:21 | -44.08367 | -102.58280 | 31971 ft | 580 kts | 92° |
| 2026-05-06 00:21 | -44.08119 | -102.46795 | 31974 ft | 581 kts | 92° |
| 2026-05-06 00:22 | -44.07857 | -102.35236 | 31993 ft | 580 kts | 92° |
| 2026-05-06 00:22 | -44.07591 | -102.23937 | 31983 ft | 582 kts | 92° |
| 2026-05-06 00:23 | -44.07315 | -102.12711 | 31998 ft | 583 kts | 92° |
| 2026-05-06 00:23 | -44.07025 | -102.01376 | 32010 ft | 583 kts | 93° |
| 2026-05-06 00:24 | -44.06719 | -101.89863 | 32020 ft | 584 kts | 92° |
| 2026-05-06 00:24 | -44.06402 | -101.78321 | 32019 ft | 588 kts | 92° |
| 2026-05-06 00:25 | -44.06068 | -101.66700 | 32027 ft | 586 kts | 92° |
| 2026-05-06 00:25 | -44.05726 | -101.55139 | 32030 ft | 583 kts | 92° |
| 2026-05-06 00:26 | -44.05372 | -101.43597 | 32048 ft | 582 kts | 93° |
| 2026-05-06 00:26 | -44.05003 | -101.31902 | 32036 ft | 583 kts | 91° |
| 2026-05-06 00:27 | -44.04635 | -101.20612 | 32045 ft | 585 kts | 92° |
| 2026-05-06 00:27 | -44.04254 | -101.09310 | 32047 ft | 584 kts | 91° |
| 2026-05-06 00:28 | -44.03862 | -100.98010 | 32057 ft | 583 kts | 92° |
| 2026-05-06 00:28 | -44.03446 | -100.86298 | 32063 ft | 584 kts | 91° |
| 2026-05-06 00:29 | -44.03024 | -100.74810 | 32070 ft | 582 kts | 91° |
| 2026-05-06 00:29 | -44.02581 | -100.63026 | 32066 ft | 585 kts | 91° |
| 2026-05-06 00:30 | -44.02139 | -100.51599 | 32081 ft | 586 kts | 92° |
| 2026-05-06 00:30 | -44.01672 | -100.39857 | 32080 ft | 587 kts | 92° |
| 2026-05-06 00:31 | -44.01203 | -100.28297 | 32065 ft | 591 kts | 91° |
| 2026-05-06 00:31 | -44.00729 | -100.16972 | 32064 ft | 586 kts | 91° |
| 2026-05-06 00:32 | -44.00244 | -100.05604 | 32074 ft | 589 kts | 91° |
| 2026-05-06 00:32 | -43.99917 | -99.94111 | 32083 ft | 581 kts | 98° |
| 2026-05-06 00:33 | -44.00496 | -99.82846 | 32092 ft | 583 kts | 101° |
| 2026-05-06 00:33 | -44.01083 | -99.71246 | 32093 ft | 582 kts | 101° |
| 2026-05-06 00:34 | -44.01601 | -99.59911 | 32097 ft | 579 kts | 101° |
| 2026-05-06 00:34 | -44.02092 | -99.48412 | 32100 ft | 580 kts | 101° |
| 2026-05-06 00:35 | -44.02552 | -99.37052 | 32111 ft | 582 kts | 101° |
| 2026-05-06 00:35 | -44.02990 | -99.25689 | 32094 ft | 580 kts | 100° |
| 2026-05-06 00:36 | -44.03410 | -99.14449 | 32088 ft | 582 kts | 100° |
| 2026-05-06 00:36 | -44.03811 | -99.03279 | 32107 ft | 580 kts | 100° |
| 2026-05-06 00:37 | -44.04207 | -98.91997 | 32114 ft | 581 kts | 99° |
| 2026-05-06 00:37 | -44.04596 | -98.80456 | 32114 ft | 576 kts | 100° |
| 2026-05-06 00:38 | -44.04968 | -98.69177 | 32112 ft | 583 kts | 99° |
| 2026-05-06 00:38 | -44.05336 | -98.57584 | 32121 ft | 585 kts | 100° |
| 2026-05-06 00:39 | -44.05685 | -98.46188 | 32117 ft | 580 kts | 100° |
| 2026-05-06 00:39 | -44.06029 | -98.34653 | 32125 ft | 582 kts | 99° |
| 2026-05-06 00:40 | -44.06356 | -98.23322 | 32106 ft | 587 kts | 99° |
| 2026-05-06 00:40 | -44.06669 | -98.12013 | 32114 ft | 586 kts | 99° |
| 2026-05-06 00:41 | -44.06970 | -98.00706 | 32125 ft | 582 kts | 99° |
| 2026-05-06 00:41 | -44.07268 | -97.89172 | 32125 ft | 583 kts | 99° |
| 2026-05-06 00:42 | -44.07555 | -97.77654 | 32125 ft | 588 kts | 99° |
| 2026-05-06 00:42 | -44.07826 | -97.66108 | 32128 ft | 584 kts | 99° |
| 2026-05-06 00:43 | -44.08090 | -97.54502 | 32148 ft | 583 kts | 100° |
| 2026-05-06 00:43 | -44.08339 | -97.42976 | 32149 ft | 582 kts | 99° |
| 2026-05-06 00:44 | -44.08578 | -97.31543 | 32131 ft | 585 kts | 98° |
| 2026-05-06 00:44 | -44.08800 | -97.20209 | 32151 ft | 583 kts | 99° |
| 2026-05-06 00:45 | -44.09014 | -97.08889 | 32158 ft | 588 kts | 98° |
| 2026-05-06 00:45 | -44.09213 | -96.97532 | 32159 ft | 584 kts | 99° |
| 2026-05-06 00:46 | -44.09409 | -96.85932 | 32169 ft | 589 kts | 98° |
| 2026-05-06 00:46 | -44.09590 | -96.74352 | 32171 ft | 585 kts | 98° |
| 2026-05-06 00:47 | -44.09758 | -96.62865 | 32164 ft | 585 kts | 98° |
| 2026-05-06 00:47 | -44.09916 | -96.51405 | 32166 ft | 586 kts | 98° |
| 2026-05-06 00:48 | -44.10066 | -96.39715 | 32169 ft | 590 kts | 99° |
| 2026-05-06 00:48 | -44.10199 | -96.28221 | 32152 ft | 586 kts | 97° |
| 2026-05-06 00:49 | -44.10321 | -96.16796 | 32154 ft | 585 kts | 97° |
| 2026-05-06 00:49 | -44.10432 | -96.05455 | 32161 ft | 590 kts | 97° |
| 2026-05-06 00:50 | -44.10529 | -95.93929 | 32166 ft | 583 kts | 98° |
| 2026-05-06 00:50 | -44.10619 | -95.82465 | 32169 ft | 587 kts | 98° |
| 2026-05-06 00:51 | -44.10696 | -95.70921 | 32171 ft | 588 kts | 98° |
| 2026-05-06 00:51 | -44.10762 | -95.59384 | 32180 ft | 588 kts | 98° |
| 2026-05-06 00:52 | -44.10816 | -95.47718 | 32182 ft | 586 kts | 98° |
| 2026-05-06 00:52 | -44.10859 | -95.36147 | 32193 ft | 588 kts | 98° |
| 2026-05-06 00:53 | -44.10889 | -95.24860 | 32177 ft | 589 kts | 98° |
| 2026-05-06 00:53 | -44.10909 | -95.13378 | 32174 ft | 588 kts | 98° |
| 2026-05-06 00:54 | -44.10916 | -95.02077 | 32183 ft | 588 kts | 97° |
| 2026-05-06 00:54 | -44.10912 | -94.90684 | 32193 ft | 590 kts | 98° |
| 2026-05-06 00:55 | -44.10896 | -94.78953 | 32188 ft | 586 kts | 98° |
| 2026-05-06 00:55 | -44.10869 | -94.67548 | 32199 ft | 585 kts | 97° |
| 2026-05-06 00:56 | -44.10831 | -94.55923 | 32194 ft | 587 kts | 98° |
| 2026-05-06 00:56 | -44.10781 | -94.44499 | 32196 ft | 584 kts | 98° |
| 2026-05-06 00:57 | -44.10718 | -94.32798 | 32189 ft | 585 kts | 97° |
| 2026-05-06 00:57 | -44.10648 | -94.21510 | 32178 ft | 590 kts | 98° |
| 2026-05-06 00:58 | -44.10562 | -94.10113 | 32187 ft | 583 kts | 97° |
| 2026-05-06 00:58 | -44.10468 | -93.98724 | 32190 ft | 584 kts | 98° |
| 2026-05-06 00:59 | -44.10360 | -93.87206 | 32190 ft | 582 kts | 97° |
| 2026-05-06 00:59 | -44.10245 | -93.75740 | 32189 ft | 590 kts | 97° |
| 2026-05-06 01:00 | -44.10110 | -93.64301 | 32192 ft | 581 kts | 97° |
| 2026-05-06 01:00 | -44.09973 | -93.52899 | 32196 ft | 587 kts | 98° |
| 2026-05-06 01:01 | -44.09816 | -93.41273 | 32201 ft | 582 kts | 98° |
| 2026-05-06 01:01 | -44.09654 | -93.29906 | 32179 ft | 584 kts | 97° |
| 2026-05-06 01:02 | -44.09479 | -93.18653 | 32183 ft | 580 kts | 97° |
| 2026-05-06 01:02 | -44.09297 | -93.07360 | 32184 ft | 582 kts | 97° |
| 2026-05-06 01:03 | -44.09101 | -92.96139 | 32197 ft | 579 kts | 97° |
| 2026-05-06 01:03 | -44.08897 | -92.84794 | 32200 ft | 584 kts | 97° |
| 2026-05-06 01:04 | -44.08672 | -92.73270 | 32195 ft | 578 kts | 97° |
| 2026-05-06 01:04 | -44.08447 | -92.62052 | 32174 ft | 584 kts | 96° |
| 2026-05-06 01:05 | -44.08200 | -92.50549 | 32199 ft | 578 kts | 97° |
| 2026-05-06 01:05 | -44.07949 | -92.39232 | 32205 ft | 580 kts | 96° |
| 2026-05-06 01:06 | -44.07684 | -92.27911 | 32157 ft | 574 kts | 96° |
| 2026-05-06 01:06 | -44.07417 | -92.16702 | 32172 ft | 583 kts | 96° |
| 2026-05-06 01:07 | -44.07131 | -92.05503 | 32168 ft | 578 kts | 96° |
| 2026-05-06 01:07 | -44.06839 | -91.94289 | 32173 ft | 581 kts | 97° |
| 2026-05-06 01:08 | -44.06522 | -91.82758 | 32165 ft | 575 kts | 97° |
| 2026-05-06 01:08 | -44.06208 | -91.71553 | 32179 ft | 578 kts | 96° |
| 2026-05-06 01:09 | -44.05871 | -91.60048 | 32179 ft | 573 kts | 96° |
| 2026-05-06 01:09 | -44.05533 | -91.48869 | 32182 ft | 571 kts | 96° |
| 2026-05-06 01:10 | -44.05180 | -91.37457 | 32188 ft | 574 kts | 96° |
| 2026-05-06 01:10 | -44.04823 | -91.26408 | 32162 ft | 573 kts | 96° |
| 2026-05-06 01:11 | -44.04458 | -91.15351 | 32179 ft | 569 kts | 95° |
| 2026-05-06 01:11 | -44.04083 | -91.04399 | 32185 ft | 567 kts | 95° |
| 2026-05-06 01:12 | -44.03700 | -90.93424 | 32168 ft | 567 kts | 94° |
| 2026-05-06 01:12 | -44.03294 | -90.82154 | 32172 ft | 564 kts | 94° |
| 2026-05-06 01:13 | -44.02879 | -90.70921 | 32176 ft | 564 kts | 94° |
| 2026-05-06 01:13 | -44.02457 | -90.59882 | 32178 ft | 556 kts | 94° |
| 2026-05-06 01:14 | -44.01817 | -90.43554 | 32195 ft | 553 kts | 94° |
| 2026-05-06 01:14 | -44.01376 | -90.32563 | 32180 ft | 555 kts | 93° |
| 2026-05-06 01:15 | -44.00933 | -90.21917 | 32176 ft | 544 kts | 92° |
| 2026-05-06 01:15 | -44.00493 | -90.11415 | 32184 ft | 552 kts | 92° |
| 2026-05-06 01:16 | -44.00035 | -90.00884 | 32157 ft | 539 kts | 92° |
| 2026-05-06 01:16 | -44.00135 | -89.90490 | 32186 ft | 538 kts | 101° |
| 2026-05-06 01:17 | -44.00686 | -89.80196 | 32176 ft | 530 kts | 100° |
| 2026-05-06 01:17 | -44.01192 | -89.69762 | 32170 ft | 532 kts | 100° |
| 2026-05-06 01:18 | -44.01653 | -89.59389 | 32177 ft | 532 kts | 100° |
| 2026-05-06 01:18 | -44.02097 | -89.48773 | 32176 ft | 532 kts | 99° |
| 2026-05-06 01:19 | -44.02508 | -89.38461 | 32172 ft | 529 kts | 99° |
| 2026-05-06 01:19 | -44.02911 | -89.28030 | 32180 ft | 530 kts | 98° |
| 2026-05-06 01:20 | -44.03291 | -89.17816 | 32184 ft | 530 kts | 98° |
| 2026-05-06 01:20 | -44.03662 | -89.07584 | 32149 ft | 527 kts | 98° |
| 2026-05-06 01:21 | -44.04022 | -88.97401 | 32166 ft | 526 kts | 98° |
| 2026-05-06 01:21 | -44.04377 | -88.87061 | 32180 ft | 528 kts | 98° |
| 2026-05-06 01:22 | -44.04720 | -88.76768 | 32171 ft | 525 kts | 97° |
| 2026-05-06 01:22 | -44.05054 | -88.66505 | 32168 ft | 525 kts | 97° |
| 2026-05-06 01:23 | -44.05379 | -88.56206 | 32165 ft | 523 kts | 97° |
| 2026-05-06 01:23 | -44.05695 | -88.45888 | 32162 ft | 521 kts | 97° |
| 2026-05-06 01:24 | -44.05998 | -88.35705 | 32170 ft | 522 kts | 96° |
| 2026-05-06 01:24 | -44.06289 | -88.25633 | 32161 ft | 521 kts | 96° |
| 2026-05-06 01:25 | -44.06572 | -88.15531 | 32154 ft | 520 kts | 96° |
| 2026-05-06 01:25 | -44.06845 | -88.05466 | 32171 ft | 519 kts | 95° |
| 2026-05-06 01:26 | -44.07107 | -87.95446 | 32180 ft | 518 kts | 95° |
| 2026-05-06 01:26 | -44.07364 | -87.85323 | 32160 ft | 518 kts | 95° |
| 2026-05-06 01:27 | -44.07614 | -87.75105 | 32165 ft | 518 kts | 95° |
| 2026-05-06 01:27 | -44.07854 | -87.64895 | 32164 ft | 517 kts | 95° |
| 2026-05-06 01:28 | -44.08082 | -87.54855 | 32172 ft | 516 kts | 95° |
| 2026-05-06 01:28 | -44.08305 | -87.44668 | 32170 ft | 516 kts | 95° |
| 2026-05-06 01:29 | -44.08517 | -87.34492 | 32172 ft | 516 kts | 94° |
| 2026-05-06 01:29 | -44.08716 | -87.24551 | 32159 ft | 516 kts | 94° |
| 2026-05-06 01:30 | -44.08906 | -87.14628 | 32164 ft | 514 kts | 94° |
| 2026-05-06 01:30 | -44.09089 | -87.04658 | 32151 ft | 514 kts | 94° |
| 2026-05-06 01:31 | -44.09261 | -86.94786 | 32157 ft | 513 kts | 94° |
| 2026-05-06 01:31 | -44.09428 | -86.84728 | 32163 ft | 514 kts | 94° |
| 2026-05-06 01:32 | -44.09586 | -86.74596 | 32154 ft | 513 kts | 94° |
| 2026-05-06 01:32 | -44.09735 | -86.64551 | 32155 ft | 512 kts | 94° |
| 2026-05-06 01:33 | -44.09875 | -86.54501 | 32140 ft | 510 kts | 94° |
| 2026-05-06 01:33 | -44.10004 | -86.44580 | 32137 ft | 510 kts | 94° |
| 2026-05-06 01:34 | -44.10127 | -86.34463 | 32145 ft | 510 kts | 92° |
| 2026-05-06 01:34 | -44.10238 | -86.24639 | 32133 ft | 509 kts | 92° |
| 2026-05-06 01:35 | -44.10341 | -86.14801 | 32130 ft | 508 kts | 92° |
| 2026-05-06 01:35 | -44.10435 | -86.04987 | 32129 ft | 508 kts | 92° |
| 2026-05-06 01:36 | -44.10521 | -85.95154 | 32128 ft | 508 kts | 92° |
| 2026-05-06 01:36 | -44.10600 | -85.85165 | 32118 ft | 509 kts | 92° |
| 2026-05-06 01:37 | -44.10669 | -85.75218 | 32120 ft | 507 kts | 92° |
| 2026-05-06 01:37 | -44.10731 | -85.65189 | 32120 ft | 506 kts | 92° |
| 2026-05-06 01:38 | -44.10783 | -85.55155 | 32131 ft | 506 kts | 92° |
| 2026-05-06 01:38 | -44.10827 | -85.45216 | 32127 ft | 505 kts | 92° |
| 2026-05-06 01:39 | -44.10862 | -85.35246 | 32135 ft | 505 kts | 92° |
| 2026-05-06 01:39 | -44.10888 | -85.25433 | 32117 ft | 504 kts | 91° |
| 2026-05-06 01:40 | -44.10905 | -85.15721 | 32131 ft | 506 kts | 91° |
| 2026-05-06 01:40 | -44.10915 | -85.05925 | 32118 ft | 505 kts | 91° |
| 2026-05-06 01:41 | -44.10915 | -84.96169 | 32122 ft | 505 kts | 91° |
| 2026-05-06 01:41 | -44.10908 | -84.86332 | 32121 ft | 505 kts | 91° |